<?xml version="1.0" encoding="UTF-8" standalone="no" ?>
<gpx xmlns="http://www.topografix.com/GPX/1/1" xmlns:xsi="http://www.w3.org/2001/XMLSchema-instance" xsi:schemaLocation="http://www.topografix.com/GPX/1/1 http://www.topografix.com/GPX/1/1/gpx.xsd" version="1.1" creator="VisuGPX - https://www.visugpx.com">
  <metadata>
    <name>De Saint-Nazaire à Pornichet par la côte</name>
    <desc><![CDATA[Magnifique !]]></desc>
  </metadata>
  <trk>
    <name><![CDATA[2014-05-18T10:07:00Z]]></name>
    <trkseg>
      <trkpt lat="47.25583" lon="-2.22975">
        <ele>4</ele>
        <time>2014-05-18T10:07:48Z</time>
      </trkpt>
      <trkpt lat="47.25584" lon="-2.22983">
        <ele>5</ele>
        <time>2014-05-18T10:07:53Z</time>
      </trkpt>
      <trkpt lat="47.25564" lon="-2.22998">
        <ele>3</ele>
        <time>2014-05-18T10:07:58Z</time>
      </trkpt>
      <trkpt lat="47.25584" lon="-2.22997">
        <ele>3</ele>
        <time>2014-05-18T10:08:04Z</time>
      </trkpt>
      <trkpt lat="47.25579" lon="-2.23012">
        <ele>2</ele>
        <time>2014-05-18T10:08:09Z</time>
      </trkpt>
      <trkpt lat="47.25583" lon="-2.23026">
        <ele>2</ele>
        <time>2014-05-18T10:08:21Z</time>
      </trkpt>
      <trkpt lat="47.25593" lon="-2.23037">
        <ele>6</ele>
        <time>2014-05-18T10:08:26Z</time>
      </trkpt>
      <trkpt lat="47.25594" lon="-2.23044">
        <ele>6</ele>
        <time>2014-05-18T10:08:31Z</time>
      </trkpt>
      <trkpt lat="47.25595" lon="-2.23051">
        <ele>6</ele>
        <time>2014-05-18T10:08:37Z</time>
      </trkpt>
      <trkpt lat="47.25597" lon="-2.2306">
        <ele>7</ele>
        <time>2014-05-18T10:08:43Z</time>
      </trkpt>
      <trkpt lat="47.25599" lon="-2.23073">
        <ele>7</ele>
        <time>2014-05-18T10:08:49Z</time>
      </trkpt>
      <trkpt lat="47.25601" lon="-2.23083">
        <ele>7</ele>
        <time>2014-05-18T10:08:57Z</time>
      </trkpt>
      <trkpt lat="47.256" lon="-2.231">
        <ele>10</ele>
        <time>2014-05-18T10:09:07Z</time>
      </trkpt>
      <trkpt lat="47.25601" lon="-2.23108">
        <ele>10</ele>
        <time>2014-05-18T10:09:13Z</time>
      </trkpt>
      <trkpt lat="47.25603" lon="-2.2312">
        <ele>10</ele>
        <time>2014-05-18T10:09:20Z</time>
      </trkpt>
      <trkpt lat="47.25604" lon="-2.23131">
        <ele>11</ele>
        <time>2014-05-18T10:09:26Z</time>
      </trkpt>
      <trkpt lat="47.25604" lon="-2.23144">
        <ele>11</ele>
        <time>2014-05-18T10:09:37Z</time>
      </trkpt>
      <trkpt lat="47.25607" lon="-2.23154">
        <ele>11</ele>
        <time>2014-05-18T10:09:43Z</time>
      </trkpt>
      <trkpt lat="47.25608" lon="-2.23164">
        <ele>11</ele>
        <time>2014-05-18T10:09:49Z</time>
      </trkpt>
      <trkpt lat="47.25608" lon="-2.23171">
        <ele>11</ele>
        <time>2014-05-18T10:09:54Z</time>
      </trkpt>
      <trkpt lat="47.25608" lon="-2.23181">
        <ele>11</ele>
        <time>2014-05-18T10:09:59Z</time>
      </trkpt>
      <trkpt lat="47.25607" lon="-2.23189">
        <ele>11</ele>
        <time>2014-05-18T10:10:06Z</time>
      </trkpt>
      <trkpt lat="47.25607" lon="-2.23199">
        <ele>11</ele>
        <time>2014-05-18T10:10:12Z</time>
      </trkpt>
      <trkpt lat="47.25608" lon="-2.23206">
        <ele>11</ele>
        <time>2014-05-18T10:10:17Z</time>
      </trkpt>
      <trkpt lat="47.25608" lon="-2.23217">
        <ele>11</ele>
        <time>2014-05-18T10:10:24Z</time>
      </trkpt>
      <trkpt lat="47.25603" lon="-2.23232">
        <ele>11</ele>
        <time>2014-05-18T10:10:34Z</time>
      </trkpt>
      <trkpt lat="47.25603" lon="-2.23243">
        <ele>11</ele>
        <time>2014-05-18T10:10:39Z</time>
      </trkpt>
      <trkpt lat="47.25604" lon="-2.23258">
        <ele>8</ele>
        <time>2014-05-18T10:10:49Z</time>
      </trkpt>
      <trkpt lat="47.25606" lon="-2.23266">
        <ele>8</ele>
        <time>2014-05-18T10:10:55Z</time>
      </trkpt>
      <trkpt lat="47.25609" lon="-2.23273">
        <ele>7</ele>
        <time>2014-05-18T10:11:00Z</time>
      </trkpt>
      <trkpt lat="47.25612" lon="-2.23282">
        <ele>7</ele>
        <time>2014-05-18T10:11:06Z</time>
      </trkpt>
      <trkpt lat="47.25617" lon="-2.23295">
        <ele>7</ele>
        <time>2014-05-18T10:11:14Z</time>
      </trkpt>
      <trkpt lat="47.25621" lon="-2.23312">
        <ele>7</ele>
        <time>2014-05-18T10:11:26Z</time>
      </trkpt>
      <trkpt lat="47.25622" lon="-2.2332">
        <ele>7</ele>
        <time>2014-05-18T10:11:32Z</time>
      </trkpt>
      <trkpt lat="47.25624" lon="-2.2333">
        <ele>7</ele>
        <time>2014-05-18T10:11:39Z</time>
      </trkpt>
      <trkpt lat="47.25627" lon="-2.2334">
        <ele>7</ele>
        <time>2014-05-18T10:11:46Z</time>
      </trkpt>
      <trkpt lat="47.25628" lon="-2.23353">
        <ele>7</ele>
        <time>2014-05-18T10:11:56Z</time>
      </trkpt>
      <trkpt lat="47.2563" lon="-2.23363">
        <ele>7</ele>
        <time>2014-05-18T10:12:01Z</time>
      </trkpt>
      <trkpt lat="47.25631" lon="-2.23379">
        <ele>8</ele>
        <time>2014-05-18T10:12:11Z</time>
      </trkpt>
      <trkpt lat="47.25632" lon="-2.2339">
        <ele>8</ele>
        <time>2014-05-18T10:12:18Z</time>
      </trkpt>
      <trkpt lat="47.25631" lon="-2.23399">
        <ele>8</ele>
        <time>2014-05-18T10:12:24Z</time>
      </trkpt>
      <trkpt lat="47.25632" lon="-2.23408">
        <ele>8</ele>
        <time>2014-05-18T10:12:29Z</time>
      </trkpt>
      <trkpt lat="47.25631" lon="-2.23415">
        <ele>8</ele>
        <time>2014-05-18T10:12:34Z</time>
      </trkpt>
      <trkpt lat="47.2563" lon="-2.23424">
        <ele>10</ele>
        <time>2014-05-18T10:12:39Z</time>
      </trkpt>
      <trkpt lat="47.25632" lon="-2.23435">
        <ele>10</ele>
        <time>2014-05-18T10:12:44Z</time>
      </trkpt>
      <trkpt lat="47.25633" lon="-2.23444">
        <ele>10</ele>
        <time>2014-05-18T10:12:50Z</time>
      </trkpt>
      <trkpt lat="47.25635" lon="-2.23457">
        <ele>10</ele>
        <time>2014-05-18T10:13:00Z</time>
      </trkpt>
      <trkpt lat="47.25637" lon="-2.23466">
        <ele>9</ele>
        <time>2014-05-18T10:13:05Z</time>
      </trkpt>
      <trkpt lat="47.25637" lon="-2.23476">
        <ele>9</ele>
        <time>2014-05-18T10:13:11Z</time>
      </trkpt>
      <trkpt lat="47.25639" lon="-2.23484">
        <ele>9</ele>
        <time>2014-05-18T10:13:18Z</time>
      </trkpt>
      <trkpt lat="47.25639" lon="-2.23492">
        <ele>9</ele>
        <time>2014-05-18T10:13:24Z</time>
      </trkpt>
      <trkpt lat="47.25641" lon="-2.23503">
        <ele>9</ele>
        <time>2014-05-18T10:13:29Z</time>
      </trkpt>
      <trkpt lat="47.25643" lon="-2.23511">
        <ele>8</ele>
        <time>2014-05-18T10:13:34Z</time>
      </trkpt>
      <trkpt lat="47.25644" lon="-2.23523">
        <ele>8</ele>
        <time>2014-05-18T10:13:48Z</time>
      </trkpt>
      <trkpt lat="47.25646" lon="-2.23532">
        <ele>8</ele>
        <time>2014-05-18T10:13:53Z</time>
      </trkpt>
      <trkpt lat="47.25648" lon="-2.23541">
        <ele>8</ele>
        <time>2014-05-18T10:13:58Z</time>
      </trkpt>
      <trkpt lat="47.25646" lon="-2.23553">
        <ele>8</ele>
        <time>2014-05-18T10:14:09Z</time>
      </trkpt>
      <trkpt lat="47.2565" lon="-2.23565">
        <ele>8</ele>
        <time>2014-05-18T10:14:14Z</time>
      </trkpt>
      <trkpt lat="47.25651" lon="-2.23571">
        <ele>7</ele>
        <time>2014-05-18T10:14:19Z</time>
      </trkpt>
      <trkpt lat="47.25657" lon="-2.23583">
        <ele>7</ele>
        <time>2014-05-18T10:14:29Z</time>
      </trkpt>
      <trkpt lat="47.25661" lon="-2.2359">
        <ele>7</ele>
        <time>2014-05-18T10:14:36Z</time>
      </trkpt>
      <trkpt lat="47.25663" lon="-2.236">
        <ele>8</ele>
        <time>2014-05-18T10:14:55Z</time>
      </trkpt>
      <trkpt lat="47.25663" lon="-2.23611">
        <ele>8</ele>
        <time>2014-05-18T10:15:00Z</time>
      </trkpt>
      <trkpt lat="47.25659" lon="-2.23629">
        <ele>9</ele>
        <time>2014-05-18T10:15:10Z</time>
      </trkpt>
      <trkpt lat="47.25657" lon="-2.23636">
        <ele>9</ele>
        <time>2014-05-18T10:15:17Z</time>
      </trkpt>
      <trkpt lat="47.25656" lon="-2.23647">
        <ele>9</ele>
        <time>2014-05-18T10:15:22Z</time>
      </trkpt>
      <trkpt lat="47.25653" lon="-2.23661">
        <ele>10</ele>
        <time>2014-05-18T10:15:27Z</time>
      </trkpt>
      <trkpt lat="47.25652" lon="-2.23681">
        <ele>11</ele>
        <time>2014-05-18T10:15:39Z</time>
      </trkpt>
      <trkpt lat="47.25653" lon="-2.23697">
        <ele>11</ele>
        <time>2014-05-18T10:15:49Z</time>
      </trkpt>
      <trkpt lat="47.25651" lon="-2.23711">
        <ele>12</ele>
        <time>2014-05-18T10:16:00Z</time>
      </trkpt>
      <trkpt lat="47.25649" lon="-2.23726">
        <ele>12</ele>
        <time>2014-05-18T10:16:05Z</time>
      </trkpt>
      <trkpt lat="47.25649" lon="-2.23734">
        <ele>12</ele>
        <time>2014-05-18T10:16:12Z</time>
      </trkpt>
      <trkpt lat="47.25646" lon="-2.23748">
        <ele>12</ele>
        <time>2014-05-18T10:16:20Z</time>
      </trkpt>
      <trkpt lat="47.25646" lon="-2.23764">
        <ele>11</ele>
        <time>2014-05-18T10:16:25Z</time>
      </trkpt>
      <trkpt lat="47.25643" lon="-2.2377">
        <ele>11</ele>
        <time>2014-05-18T10:16:32Z</time>
      </trkpt>
      <trkpt lat="47.25643" lon="-2.23781">
        <ele>11</ele>
        <time>2014-05-18T10:16:37Z</time>
      </trkpt>
      <trkpt lat="47.25642" lon="-2.23794">
        <ele>11</ele>
        <time>2014-05-18T10:16:42Z</time>
      </trkpt>
      <trkpt lat="47.25641" lon="-2.23801">
        <ele>10</ele>
        <time>2014-05-18T10:16:49Z</time>
      </trkpt>
      <trkpt lat="47.25642" lon="-2.23818">
        <ele>11</ele>
        <time>2014-05-18T10:16:54Z</time>
      </trkpt>
      <trkpt lat="47.25645" lon="-2.23827">
        <ele>11</ele>
        <time>2014-05-18T10:17:02Z</time>
      </trkpt>
      <trkpt lat="47.25647" lon="-2.23838">
        <ele>12</ele>
        <time>2014-05-18T10:17:07Z</time>
      </trkpt>
      <trkpt lat="47.25649" lon="-2.23846">
        <ele>12</ele>
        <time>2014-05-18T10:17:13Z</time>
      </trkpt>
      <trkpt lat="47.25651" lon="-2.23855">
        <ele>11</ele>
        <time>2014-05-18T10:17:19Z</time>
      </trkpt>
      <trkpt lat="47.2565" lon="-2.23873">
        <ele>11</ele>
        <time>2014-05-18T10:17:31Z</time>
      </trkpt>
      <trkpt lat="47.25651" lon="-2.2388">
        <ele>11</ele>
        <time>2014-05-18T10:17:36Z</time>
      </trkpt>
      <trkpt lat="47.25651" lon="-2.23896">
        <ele>12</ele>
        <time>2014-05-18T10:17:41Z</time>
      </trkpt>
      <trkpt lat="47.25649" lon="-2.23914">
        <ele>13</ele>
        <time>2014-05-18T10:17:52Z</time>
      </trkpt>
      <trkpt lat="47.25649" lon="-2.23921">
        <ele>14</ele>
        <time>2014-05-18T10:17:59Z</time>
      </trkpt>
      <trkpt lat="47.25649" lon="-2.23938">
        <ele>14</ele>
        <time>2014-05-18T10:18:04Z</time>
      </trkpt>
      <trkpt lat="47.25648" lon="-2.23946">
        <ele>14</ele>
        <time>2014-05-18T10:18:11Z</time>
      </trkpt>
      <trkpt lat="47.25645" lon="-2.23955">
        <ele>14</ele>
        <time>2014-05-18T10:18:16Z</time>
      </trkpt>
      <trkpt lat="47.25642" lon="-2.23967">
        <ele>15</ele>
        <time>2014-05-18T10:18:26Z</time>
      </trkpt>
      <trkpt lat="47.25638" lon="-2.23976">
        <ele>15</ele>
        <time>2014-05-18T10:18:32Z</time>
      </trkpt>
      <trkpt lat="47.25634" lon="-2.23981">
        <ele>15</ele>
        <time>2014-05-18T10:18:38Z</time>
      </trkpt>
      <trkpt lat="47.25631" lon="-2.2399">
        <ele>15</ele>
        <time>2014-05-18T10:18:45Z</time>
      </trkpt>
      <trkpt lat="47.25629" lon="-2.24">
        <ele>15</ele>
        <time>2014-05-18T10:18:50Z</time>
      </trkpt>
      <trkpt lat="47.25626" lon="-2.24005">
        <ele>13</ele>
        <time>2014-05-18T10:18:55Z</time>
      </trkpt>
      <trkpt lat="47.25623" lon="-2.2402">
        <ele>12</ele>
        <time>2014-05-18T10:19:01Z</time>
      </trkpt>
      <trkpt lat="47.25626" lon="-2.24029">
        <ele>12</ele>
        <time>2014-05-18T10:19:06Z</time>
      </trkpt>
      <trkpt lat="47.25629" lon="-2.24037">
        <ele>12</ele>
        <time>2014-05-18T10:19:14Z</time>
      </trkpt>
      <trkpt lat="47.25634" lon="-2.24039">
        <ele>13</ele>
        <time>2014-05-18T10:19:20Z</time>
      </trkpt>
      <trkpt lat="47.25644" lon="-2.24044">
        <ele>13</ele>
        <time>2014-05-18T10:19:25Z</time>
      </trkpt>
      <trkpt lat="47.25648" lon="-2.24051">
        <ele>13</ele>
        <time>2014-05-18T10:19:31Z</time>
      </trkpt>
      <trkpt lat="47.25643" lon="-2.24067">
        <ele>13</ele>
        <time>2014-05-18T10:19:41Z</time>
      </trkpt>
      <trkpt lat="47.25641" lon="-2.24076">
        <ele>13</ele>
        <time>2014-05-18T10:19:46Z</time>
      </trkpt>
      <trkpt lat="47.2564" lon="-2.24089">
        <ele>12</ele>
        <time>2014-05-18T10:19:51Z</time>
      </trkpt>
      <trkpt lat="47.25638" lon="-2.24099">
        <ele>12</ele>
        <time>2014-05-18T10:19:57Z</time>
      </trkpt>
      <trkpt lat="47.25635" lon="-2.2411">
        <ele>11</ele>
        <time>2014-05-18T10:20:02Z</time>
      </trkpt>
      <trkpt lat="47.25635" lon="-2.2412">
        <ele>11</ele>
        <time>2014-05-18T10:20:08Z</time>
      </trkpt>
      <trkpt lat="47.25637" lon="-2.24129">
        <ele>12</ele>
        <time>2014-05-18T10:20:14Z</time>
      </trkpt>
      <trkpt lat="47.25636" lon="-2.24137">
        <ele>12</ele>
        <time>2014-05-18T10:20:20Z</time>
      </trkpt>
      <trkpt lat="47.25634" lon="-2.24149">
        <ele>12</ele>
        <time>2014-05-18T10:20:25Z</time>
      </trkpt>
      <trkpt lat="47.25633" lon="-2.24161">
        <ele>12</ele>
        <time>2014-05-18T10:20:32Z</time>
      </trkpt>
      <trkpt lat="47.25632" lon="-2.24171">
        <ele>12</ele>
        <time>2014-05-18T10:20:37Z</time>
      </trkpt>
      <trkpt lat="47.25633" lon="-2.24183">
        <ele>12</ele>
        <time>2014-05-18T10:20:43Z</time>
      </trkpt>
      <trkpt lat="47.25634" lon="-2.24193">
        <ele>12</ele>
        <time>2014-05-18T10:20:49Z</time>
      </trkpt>
      <trkpt lat="47.25628" lon="-2.24202">
        <ele>11</ele>
        <time>2014-05-18T10:20:59Z</time>
      </trkpt>
      <trkpt lat="47.25627" lon="-2.24217">
        <ele>11</ele>
        <time>2014-05-18T10:21:04Z</time>
      </trkpt>
      <trkpt lat="47.25628" lon="-2.24229">
        <ele>12</ele>
        <time>2014-05-18T10:21:09Z</time>
      </trkpt>
      <trkpt lat="47.25625" lon="-2.24246">
        <ele>11</ele>
        <time>2014-05-18T10:21:20Z</time>
      </trkpt>
      <trkpt lat="47.25624" lon="-2.24256">
        <ele>12</ele>
        <time>2014-05-18T10:21:28Z</time>
      </trkpt>
      <trkpt lat="47.25622" lon="-2.24267">
        <ele>12</ele>
        <time>2014-05-18T10:21:35Z</time>
      </trkpt>
      <trkpt lat="47.25622" lon="-2.24279">
        <ele>12</ele>
        <time>2014-05-18T10:21:41Z</time>
      </trkpt>
      <trkpt lat="47.2562" lon="-2.24291">
        <ele>12</ele>
        <time>2014-05-18T10:21:46Z</time>
      </trkpt>
      <trkpt lat="47.25617" lon="-2.24299">
        <ele>11</ele>
        <time>2014-05-18T10:21:51Z</time>
      </trkpt>
      <trkpt lat="47.25619" lon="-2.24307">
        <ele>12</ele>
        <time>2014-05-18T10:21:57Z</time>
      </trkpt>
      <trkpt lat="47.25621" lon="-2.24316">
        <ele>12</ele>
        <time>2014-05-18T10:22:02Z</time>
      </trkpt>
      <trkpt lat="47.25622" lon="-2.24328">
        <ele>12</ele>
        <time>2014-05-18T10:22:07Z</time>
      </trkpt>
      <trkpt lat="47.25622" lon="-2.24337">
        <ele>13</ele>
        <time>2014-05-18T10:22:15Z</time>
      </trkpt>
      <trkpt lat="47.25622" lon="-2.2435">
        <ele>13</ele>
        <time>2014-05-18T10:22:20Z</time>
      </trkpt>
      <trkpt lat="47.25622" lon="-2.24365">
        <ele>13</ele>
        <time>2014-05-18T10:22:29Z</time>
      </trkpt>
      <trkpt lat="47.25621" lon="-2.24373">
        <ele>13</ele>
        <time>2014-05-18T10:22:36Z</time>
      </trkpt>
      <trkpt lat="47.25617" lon="-2.24385">
        <ele>13</ele>
        <time>2014-05-18T10:22:41Z</time>
      </trkpt>
      <trkpt lat="47.25611" lon="-2.24396">
        <ele>12</ele>
        <time>2014-05-18T10:22:46Z</time>
      </trkpt>
      <trkpt lat="47.25607" lon="-2.244">
        <ele>12</ele>
        <time>2014-05-18T10:22:51Z</time>
      </trkpt>
      <trkpt lat="47.25607" lon="-2.24412">
        <ele>11</ele>
        <time>2014-05-18T10:22:56Z</time>
      </trkpt>
      <trkpt lat="47.25611" lon="-2.24423">
        <ele>12</ele>
        <time>2014-05-18T10:23:03Z</time>
      </trkpt>
      <trkpt lat="47.25611" lon="-2.24433">
        <ele>12</ele>
        <time>2014-05-18T10:23:10Z</time>
      </trkpt>
      <trkpt lat="47.25613" lon="-2.24443">
        <ele>13</ele>
        <time>2014-05-18T10:23:15Z</time>
      </trkpt>
      <trkpt lat="47.25614" lon="-2.24451">
        <ele>13</ele>
        <time>2014-05-18T10:23:21Z</time>
      </trkpt>
      <trkpt lat="47.25617" lon="-2.24464">
        <ele>13</ele>
        <time>2014-05-18T10:23:28Z</time>
      </trkpt>
      <trkpt lat="47.2562" lon="-2.24473">
        <ele>13</ele>
        <time>2014-05-18T10:23:33Z</time>
      </trkpt>
      <trkpt lat="47.25621" lon="-2.24481">
        <ele>13</ele>
        <time>2014-05-18T10:23:40Z</time>
      </trkpt>
      <trkpt lat="47.25621" lon="-2.24488">
        <ele>13</ele>
        <time>2014-05-18T10:23:45Z</time>
      </trkpt>
      <trkpt lat="47.25621" lon="-2.24495">
        <ele>13</ele>
        <time>2014-05-18T10:23:51Z</time>
      </trkpt>
      <trkpt lat="47.25621" lon="-2.24503">
        <ele>13</ele>
        <time>2014-05-18T10:23:57Z</time>
      </trkpt>
      <trkpt lat="47.25625" lon="-2.24511">
        <ele>14</ele>
        <time>2014-05-18T10:24:02Z</time>
      </trkpt>
      <trkpt lat="47.25623" lon="-2.24519">
        <ele>13</ele>
        <time>2014-05-18T10:24:07Z</time>
      </trkpt>
      <trkpt lat="47.25621" lon="-2.24529">
        <ele>13</ele>
        <time>2014-05-18T10:24:17Z</time>
      </trkpt>
      <trkpt lat="47.25616" lon="-2.24535">
        <ele>13</ele>
        <time>2014-05-18T10:24:38Z</time>
      </trkpt>
      <trkpt lat="47.25615" lon="-2.24542">
        <ele>13</ele>
        <time>2014-05-18T10:24:44Z</time>
      </trkpt>
      <trkpt lat="47.2561" lon="-2.24543">
        <ele>13</ele>
        <time>2014-05-18T10:25:09Z</time>
      </trkpt>
      <trkpt lat="47.25607" lon="-2.24556">
        <ele>12</ele>
        <time>2014-05-18T10:25:15Z</time>
      </trkpt>
      <trkpt lat="47.25608" lon="-2.24567">
        <ele>12</ele>
        <time>2014-05-18T10:25:20Z</time>
      </trkpt>
      <trkpt lat="47.25609" lon="-2.24577">
        <ele>12</ele>
        <time>2014-05-18T10:25:26Z</time>
      </trkpt>
      <trkpt lat="47.25609" lon="-2.24584">
        <ele>12</ele>
        <time>2014-05-18T10:25:31Z</time>
      </trkpt>
      <trkpt lat="47.25609" lon="-2.24592">
        <ele>12</ele>
        <time>2014-05-18T10:25:36Z</time>
      </trkpt>
      <trkpt lat="47.25611" lon="-2.246">
        <ele>13</ele>
        <time>2014-05-18T10:25:43Z</time>
      </trkpt>
      <trkpt lat="47.25609" lon="-2.24608">
        <ele>13</ele>
        <time>2014-05-18T10:25:49Z</time>
      </trkpt>
      <trkpt lat="47.25607" lon="-2.24619">
        <ele>13</ele>
        <time>2014-05-18T10:25:56Z</time>
      </trkpt>
      <trkpt lat="47.25608" lon="-2.24627">
        <ele>13</ele>
        <time>2014-05-18T10:26:04Z</time>
      </trkpt>
      <trkpt lat="47.25607" lon="-2.24634">
        <ele>13</ele>
        <time>2014-05-18T10:26:10Z</time>
      </trkpt>
      <trkpt lat="47.25605" lon="-2.24645">
        <ele>12</ele>
        <time>2014-05-18T10:26:17Z</time>
      </trkpt>
      <trkpt lat="47.25604" lon="-2.24652">
        <ele>12</ele>
        <time>2014-05-18T10:26:22Z</time>
      </trkpt>
      <trkpt lat="47.25602" lon="-2.24661">
        <ele>11</ele>
        <time>2014-05-18T10:26:28Z</time>
      </trkpt>
      <trkpt lat="47.25602" lon="-2.2467">
        <ele>13</ele>
        <time>2014-05-18T10:26:40Z</time>
      </trkpt>
      <trkpt lat="47.256" lon="-2.24678">
        <ele>13</ele>
        <time>2014-05-18T10:26:45Z</time>
      </trkpt>
      <trkpt lat="47.256" lon="-2.24687">
        <ele>14</ele>
        <time>2014-05-18T10:26:51Z</time>
      </trkpt>
      <trkpt lat="47.256" lon="-2.24694">
        <ele>15</ele>
        <time>2014-05-18T10:26:58Z</time>
      </trkpt>
      <trkpt lat="47.25599" lon="-2.24702">
        <ele>16</ele>
        <time>2014-05-18T10:27:03Z</time>
      </trkpt>
      <trkpt lat="47.25596" lon="-2.24719">
        <ele>16</ele>
        <time>2014-05-18T10:27:13Z</time>
      </trkpt>
      <trkpt lat="47.25593" lon="-2.24733">
        <ele>16</ele>
        <time>2014-05-18T10:27:23Z</time>
      </trkpt>
      <trkpt lat="47.2559" lon="-2.24739">
        <ele>15</ele>
        <time>2014-05-18T10:27:28Z</time>
      </trkpt>
      <trkpt lat="47.25586" lon="-2.24752">
        <ele>15</ele>
        <time>2014-05-18T10:27:38Z</time>
      </trkpt>
      <trkpt lat="47.25584" lon="-2.24761">
        <ele>16</ele>
        <time>2014-05-18T10:27:45Z</time>
      </trkpt>
      <trkpt lat="47.25582" lon="-2.24771">
        <ele>13</ele>
        <time>2014-05-18T10:27:51Z</time>
      </trkpt>
      <trkpt lat="47.2558" lon="-2.24778">
        <ele>13</ele>
        <time>2014-05-18T10:27:57Z</time>
      </trkpt>
      <trkpt lat="47.25576" lon="-2.24791">
        <ele>13</ele>
        <time>2014-05-18T10:28:09Z</time>
      </trkpt>
      <trkpt lat="47.25575" lon="-2.248">
        <ele>13</ele>
        <time>2014-05-18T10:28:15Z</time>
      </trkpt>
      <trkpt lat="47.2557" lon="-2.24805">
        <ele>13</ele>
        <time>2014-05-18T10:28:21Z</time>
      </trkpt>
      <trkpt lat="47.25567" lon="-2.24816">
        <ele>13</ele>
        <time>2014-05-18T10:28:27Z</time>
      </trkpt>
      <trkpt lat="47.25561" lon="-2.24823">
        <ele>13</ele>
        <time>2014-05-18T10:28:38Z</time>
      </trkpt>
      <trkpt lat="47.25559" lon="-2.24835">
        <ele>15</ele>
        <time>2014-05-18T10:28:43Z</time>
      </trkpt>
      <trkpt lat="47.25556" lon="-2.24844">
        <ele>15</ele>
        <time>2014-05-18T10:28:54Z</time>
      </trkpt>
      <trkpt lat="47.25551" lon="-2.24852">
        <ele>15</ele>
        <time>2014-05-18T10:29:01Z</time>
      </trkpt>
      <trkpt lat="47.25548" lon="-2.24858">
        <ele>16</ele>
        <time>2014-05-18T10:29:06Z</time>
      </trkpt>
      <trkpt lat="47.25546" lon="-2.24867">
        <ele>16</ele>
        <time>2014-05-18T10:29:12Z</time>
      </trkpt>
      <trkpt lat="47.25542" lon="-2.24874">
        <ele>16</ele>
        <time>2014-05-18T10:29:17Z</time>
      </trkpt>
      <trkpt lat="47.25538" lon="-2.2488">
        <ele>17</ele>
        <time>2014-05-18T10:29:22Z</time>
      </trkpt>
      <trkpt lat="47.25535" lon="-2.24885">
        <ele>17</ele>
        <time>2014-05-18T10:29:27Z</time>
      </trkpt>
      <trkpt lat="47.25535" lon="-2.24897">
        <ele>18</ele>
        <time>2014-05-18T10:29:38Z</time>
      </trkpt>
      <trkpt lat="47.25529" lon="-2.24906">
        <ele>19</ele>
        <time>2014-05-18T10:30:04Z</time>
      </trkpt>
      <trkpt lat="47.25523" lon="-2.24913">
        <ele>19</ele>
        <time>2014-05-18T10:30:18Z</time>
      </trkpt>
      <trkpt lat="47.25517" lon="-2.24917">
        <ele>24</ele>
        <time>2014-05-18T10:30:28Z</time>
      </trkpt>
      <trkpt lat="47.25511" lon="-2.24917">
        <ele>23</ele>
        <time>2014-05-18T10:30:38Z</time>
      </trkpt>
      <trkpt lat="47.25506" lon="-2.24917">
        <ele>23</ele>
        <time>2014-05-18T10:30:50Z</time>
      </trkpt>
      <trkpt lat="47.255" lon="-2.24917">
        <ele>22</ele>
        <time>2014-05-18T10:30:56Z</time>
      </trkpt>
      <trkpt lat="47.25495" lon="-2.24918">
        <ele>22</ele>
        <time>2014-05-18T10:31:01Z</time>
      </trkpt>
      <trkpt lat="47.2549" lon="-2.2492">
        <ele>22</ele>
        <time>2014-05-18T10:31:06Z</time>
      </trkpt>
      <trkpt lat="47.25483" lon="-2.24919">
        <ele>21</ele>
        <time>2014-05-18T10:31:11Z</time>
      </trkpt>
      <trkpt lat="47.25477" lon="-2.24916">
        <ele>17</ele>
        <time>2014-05-18T10:31:16Z</time>
      </trkpt>
      <trkpt lat="47.25471" lon="-2.24914">
        <ele>17</ele>
        <time>2014-05-18T10:31:22Z</time>
      </trkpt>
      <trkpt lat="47.25468" lon="-2.24907">
        <ele>16</ele>
        <time>2014-05-18T10:31:29Z</time>
      </trkpt>
      <trkpt lat="47.25468" lon="-2.249">
        <ele>16</ele>
        <time>2014-05-18T10:31:34Z</time>
      </trkpt>
      <trkpt lat="47.25466" lon="-2.24894">
        <ele>15</ele>
        <time>2014-05-18T10:31:39Z</time>
      </trkpt>
      <trkpt lat="47.25462" lon="-2.24887">
        <ele>14</ele>
        <time>2014-05-18T10:31:45Z</time>
      </trkpt>
      <trkpt lat="47.25455" lon="-2.24886">
        <ele>14</ele>
        <time>2014-05-18T10:31:50Z</time>
      </trkpt>
      <trkpt lat="47.25446" lon="-2.24881">
        <ele>14</ele>
        <time>2014-05-18T10:32:00Z</time>
      </trkpt>
      <trkpt lat="47.25439" lon="-2.24892">
        <ele>14</ele>
        <time>2014-05-18T10:32:13Z</time>
      </trkpt>
      <trkpt lat="47.25436" lon="-2.24898">
        <ele>15</ele>
        <time>2014-05-18T10:32:20Z</time>
      </trkpt>
      <trkpt lat="47.2543" lon="-2.24898">
        <ele>15</ele>
        <time>2014-05-18T10:32:31Z</time>
      </trkpt>
      <trkpt lat="47.25423" lon="-2.24901">
        <ele>15</ele>
        <time>2014-05-18T10:32:36Z</time>
      </trkpt>
      <trkpt lat="47.25418" lon="-2.24907">
        <ele>15</ele>
        <time>2014-05-18T10:32:44Z</time>
      </trkpt>
      <trkpt lat="47.25413" lon="-2.24914">
        <ele>15</ele>
        <time>2014-05-18T10:32:52Z</time>
      </trkpt>
      <trkpt lat="47.2541" lon="-2.24924">
        <ele>16</ele>
        <time>2014-05-18T10:32:57Z</time>
      </trkpt>
      <trkpt lat="47.25406" lon="-2.24932">
        <ele>16</ele>
        <time>2014-05-18T10:33:04Z</time>
      </trkpt>
      <trkpt lat="47.25402" lon="-2.24939">
        <ele>16</ele>
        <time>2014-05-18T10:33:11Z</time>
      </trkpt>
      <trkpt lat="47.25398" lon="-2.24948">
        <ele>17</ele>
        <time>2014-05-18T10:33:18Z</time>
      </trkpt>
      <trkpt lat="47.25394" lon="-2.24954">
        <ele>17</ele>
        <time>2014-05-18T10:33:24Z</time>
      </trkpt>
      <trkpt lat="47.2539" lon="-2.24967">
        <ele>18</ele>
        <time>2014-05-18T10:33:31Z</time>
      </trkpt>
      <trkpt lat="47.25389" lon="-2.24975">
        <ele>18</ele>
        <time>2014-05-18T10:33:37Z</time>
      </trkpt>
      <trkpt lat="47.2539" lon="-2.24985">
        <ele>19</ele>
        <time>2014-05-18T10:33:44Z</time>
      </trkpt>
      <trkpt lat="47.2539" lon="-2.24992">
        <ele>19</ele>
        <time>2014-05-18T10:33:50Z</time>
      </trkpt>
      <trkpt lat="47.2539" lon="-2.25004">
        <ele>17</ele>
        <time>2014-05-18T10:33:57Z</time>
      </trkpt>
      <trkpt lat="47.25391" lon="-2.25012">
        <ele>17</ele>
        <time>2014-05-18T10:34:02Z</time>
      </trkpt>
      <trkpt lat="47.25391" lon="-2.25022">
        <ele>16</ele>
        <time>2014-05-18T10:34:10Z</time>
      </trkpt>
      <trkpt lat="47.25391" lon="-2.25032">
        <ele>16</ele>
        <time>2014-05-18T10:34:15Z</time>
      </trkpt>
      <trkpt lat="47.25387" lon="-2.25043">
        <ele>15</ele>
        <time>2014-05-18T10:34:27Z</time>
      </trkpt>
      <trkpt lat="47.25385" lon="-2.2505">
        <ele>15</ele>
        <time>2014-05-18T10:34:33Z</time>
      </trkpt>
      <trkpt lat="47.25385" lon="-2.25061">
        <ele>14</ele>
        <time>2014-05-18T10:34:39Z</time>
      </trkpt>
      <trkpt lat="47.25386" lon="-2.25071">
        <ele>14</ele>
        <time>2014-05-18T10:34:44Z</time>
      </trkpt>
      <trkpt lat="47.25387" lon="-2.25083">
        <ele>14</ele>
        <time>2014-05-18T10:34:49Z</time>
      </trkpt>
      <trkpt lat="47.25382" lon="-2.25091">
        <ele>13</ele>
        <time>2014-05-18T10:34:54Z</time>
      </trkpt>
      <trkpt lat="47.25379" lon="-2.25101">
        <ele>12</ele>
        <time>2014-05-18T10:35:09Z</time>
      </trkpt>
      <trkpt lat="47.25376" lon="-2.25106">
        <ele>12</ele>
        <time>2014-05-18T10:35:18Z</time>
      </trkpt>
      <trkpt lat="47.25371" lon="-2.25114">
        <ele>12</ele>
        <time>2014-05-18T10:35:34Z</time>
      </trkpt>
      <trkpt lat="47.25362" lon="-2.25121">
        <ele>11</ele>
        <time>2014-05-18T10:35:44Z</time>
      </trkpt>
      <trkpt lat="47.2536" lon="-2.25128">
        <ele>11</ele>
        <time>2014-05-18T10:35:50Z</time>
      </trkpt>
      <trkpt lat="47.25362" lon="-2.25138">
        <ele>11</ele>
        <time>2014-05-18T10:35:57Z</time>
      </trkpt>
      <trkpt lat="47.25364" lon="-2.25148">
        <ele>11</ele>
        <time>2014-05-18T10:36:03Z</time>
      </trkpt>
      <trkpt lat="47.25363" lon="-2.25163">
        <ele>11</ele>
        <time>2014-05-18T10:36:14Z</time>
      </trkpt>
      <trkpt lat="47.2536" lon="-2.25176">
        <ele>11</ele>
        <time>2014-05-18T10:36:25Z</time>
      </trkpt>
      <trkpt lat="47.25355" lon="-2.25186">
        <ele>11</ele>
        <time>2014-05-18T10:36:34Z</time>
      </trkpt>
      <trkpt lat="47.2535" lon="-2.25194">
        <ele>11</ele>
        <time>2014-05-18T10:36:39Z</time>
      </trkpt>
      <trkpt lat="47.25349" lon="-2.252">
        <ele>11</ele>
        <time>2014-05-18T10:36:46Z</time>
      </trkpt>
      <trkpt lat="47.2535" lon="-2.25208">
        <ele>11</ele>
        <time>2014-05-18T10:36:53Z</time>
      </trkpt>
      <trkpt lat="47.25349" lon="-2.25221">
        <ele>11</ele>
        <time>2014-05-18T10:36:58Z</time>
      </trkpt>
      <trkpt lat="47.25342" lon="-2.25225">
        <ele>10</ele>
        <time>2014-05-18T10:37:10Z</time>
      </trkpt>
      <trkpt lat="47.25343" lon="-2.25235">
        <ele>9</ele>
        <time>2014-05-18T10:37:20Z</time>
      </trkpt>
      <trkpt lat="47.25348" lon="-2.25239">
        <ele>10</ele>
        <time>2014-05-18T10:37:27Z</time>
      </trkpt>
      <trkpt lat="47.25353" lon="-2.25246">
        <ele>10</ele>
        <time>2014-05-18T10:37:34Z</time>
      </trkpt>
      <trkpt lat="47.25355" lon="-2.25252">
        <ele>10</ele>
        <time>2014-05-18T10:37:44Z</time>
      </trkpt>
      <trkpt lat="47.25359" lon="-2.25259">
        <ele>11</ele>
        <time>2014-05-18T10:37:50Z</time>
      </trkpt>
      <trkpt lat="47.25357" lon="-2.25267">
        <ele>11</ele>
        <time>2014-05-18T10:37:58Z</time>
      </trkpt>
      <trkpt lat="47.25357" lon="-2.25279">
        <ele>11</ele>
        <time>2014-05-18T10:38:03Z</time>
      </trkpt>
      <trkpt lat="47.25359" lon="-2.25288">
        <ele>12</ele>
        <time>2014-05-18T10:38:16Z</time>
      </trkpt>
      <trkpt lat="47.25356" lon="-2.25295">
        <ele>12</ele>
        <time>2014-05-18T10:38:21Z</time>
      </trkpt>
      <trkpt lat="47.25354" lon="-2.25308">
        <ele>11</ele>
        <time>2014-05-18T10:38:31Z</time>
      </trkpt>
      <trkpt lat="47.2535" lon="-2.25315">
        <ele>11</ele>
        <time>2014-05-18T10:38:54Z</time>
      </trkpt>
      <trkpt lat="47.25346" lon="-2.25321">
        <ele>10</ele>
        <time>2014-05-18T10:39:04Z</time>
      </trkpt>
      <trkpt lat="47.25343" lon="-2.25326">
        <ele>10</ele>
        <time>2014-05-18T10:39:15Z</time>
      </trkpt>
      <trkpt lat="47.25339" lon="-2.25333">
        <ele>9</ele>
        <time>2014-05-18T10:39:21Z</time>
      </trkpt>
      <trkpt lat="47.25337" lon="-2.2534">
        <ele>10</ele>
        <time>2014-05-18T10:39:43Z</time>
      </trkpt>
      <trkpt lat="47.25336" lon="-2.25349">
        <ele>11</ele>
        <time>2014-05-18T10:40:06Z</time>
      </trkpt>
      <trkpt lat="47.25339" lon="-2.25356">
        <ele>11</ele>
        <time>2014-05-18T10:40:14Z</time>
      </trkpt>
      <trkpt lat="47.25338" lon="-2.25363">
        <ele>12</ele>
        <time>2014-05-18T10:40:27Z</time>
      </trkpt>
      <trkpt lat="47.25337" lon="-2.25373">
        <ele>12</ele>
        <time>2014-05-18T10:40:33Z</time>
      </trkpt>
      <trkpt lat="47.25341" lon="-2.25384">
        <ele>13</ele>
        <time>2014-05-18T10:40:47Z</time>
      </trkpt>
      <trkpt lat="47.25346" lon="-2.25392">
        <ele>13</ele>
        <time>2014-05-18T10:40:54Z</time>
      </trkpt>
      <trkpt lat="47.25345" lon="-2.25401">
        <ele>13</ele>
        <time>2014-05-18T10:41:01Z</time>
      </trkpt>
      <trkpt lat="47.25343" lon="-2.25412">
        <ele>13</ele>
        <time>2014-05-18T10:41:08Z</time>
      </trkpt>
      <trkpt lat="47.25341" lon="-2.25419">
        <ele>13</ele>
        <time>2014-05-18T10:41:16Z</time>
      </trkpt>
      <trkpt lat="47.25337" lon="-2.25415">
        <ele>12</ele>
        <time>2014-05-18T10:41:22Z</time>
      </trkpt>
      <trkpt lat="47.25331" lon="-2.25414">
        <ele>12</ele>
        <time>2014-05-18T10:41:27Z</time>
      </trkpt>
      <trkpt lat="47.25325" lon="-2.25414">
        <ele>11</ele>
        <time>2014-05-18T10:41:34Z</time>
      </trkpt>
      <trkpt lat="47.25319" lon="-2.25417">
        <ele>11</ele>
        <time>2014-05-18T10:41:41Z</time>
      </trkpt>
      <trkpt lat="47.25314" lon="-2.25414">
        <ele>11</ele>
        <time>2014-05-18T10:41:46Z</time>
      </trkpt>
      <trkpt lat="47.2531" lon="-2.25408">
        <ele>11</ele>
        <time>2014-05-18T10:41:52Z</time>
      </trkpt>
      <trkpt lat="47.25303" lon="-2.25401">
        <ele>10</ele>
        <time>2014-05-18T10:42:08Z</time>
      </trkpt>
      <trkpt lat="47.25297" lon="-2.25398">
        <ele>10</ele>
        <time>2014-05-18T10:42:13Z</time>
      </trkpt>
      <trkpt lat="47.25292" lon="-2.25394">
        <ele>10</ele>
        <time>2014-05-18T10:42:18Z</time>
      </trkpt>
      <trkpt lat="47.25289" lon="-2.25388">
        <ele>10</ele>
        <time>2014-05-18T10:42:24Z</time>
      </trkpt>
      <trkpt lat="47.25286" lon="-2.25379">
        <ele>10</ele>
        <time>2014-05-18T10:42:29Z</time>
      </trkpt>
      <trkpt lat="47.25284" lon="-2.25372">
        <ele>10</ele>
        <time>2014-05-18T10:42:35Z</time>
      </trkpt>
      <trkpt lat="47.25276" lon="-2.25371">
        <ele>10</ele>
        <time>2014-05-18T10:42:49Z</time>
      </trkpt>
      <trkpt lat="47.25275" lon="-2.25378">
        <ele>10</ele>
        <time>2014-05-18T10:42:54Z</time>
      </trkpt>
      <trkpt lat="47.25276" lon="-2.25389">
        <ele>10</ele>
        <time>2014-05-18T10:43:00Z</time>
      </trkpt>
      <trkpt lat="47.25278" lon="-2.254">
        <ele>10</ele>
        <time>2014-05-18T10:43:07Z</time>
      </trkpt>
      <trkpt lat="47.25269" lon="-2.25409">
        <ele>10</ele>
        <time>2014-05-18T10:43:19Z</time>
      </trkpt>
      <trkpt lat="47.25262" lon="-2.25407">
        <ele>10</ele>
        <time>2014-05-18T10:43:31Z</time>
      </trkpt>
      <trkpt lat="47.25255" lon="-2.25416">
        <ele>9</ele>
        <time>2014-05-18T10:43:44Z</time>
      </trkpt>
      <trkpt lat="47.25247" lon="-2.25423">
        <ele>9</ele>
        <time>2014-05-18T10:43:51Z</time>
      </trkpt>
      <trkpt lat="47.25245" lon="-2.25435">
        <ele>9</ele>
        <time>2014-05-18T10:43:58Z</time>
      </trkpt>
      <trkpt lat="47.25246" lon="-2.25444">
        <ele>10</ele>
        <time>2014-05-18T10:44:04Z</time>
      </trkpt>
      <trkpt lat="47.25244" lon="-2.25451">
        <ele>10</ele>
        <time>2014-05-18T10:44:09Z</time>
      </trkpt>
      <trkpt lat="47.25242" lon="-2.25457">
        <ele>10</ele>
        <time>2014-05-18T10:44:15Z</time>
      </trkpt>
      <trkpt lat="47.25235" lon="-2.25468">
        <ele>10</ele>
        <time>2014-05-18T10:44:24Z</time>
      </trkpt>
      <trkpt lat="47.2523" lon="-2.25474">
        <ele>10</ele>
        <time>2014-05-18T10:44:29Z</time>
      </trkpt>
      <trkpt lat="47.25223" lon="-2.25481">
        <ele>10</ele>
        <time>2014-05-18T10:44:36Z</time>
      </trkpt>
      <trkpt lat="47.25219" lon="-2.25488">
        <ele>10</ele>
        <time>2014-05-18T10:44:43Z</time>
      </trkpt>
      <trkpt lat="47.25214" lon="-2.25496">
        <ele>10</ele>
        <time>2014-05-18T10:44:49Z</time>
      </trkpt>
      <trkpt lat="47.25211" lon="-2.25506">
        <ele>13</ele>
        <time>2014-05-18T10:44:56Z</time>
      </trkpt>
      <trkpt lat="47.25208" lon="-2.25514">
        <ele>13</ele>
        <time>2014-05-18T10:45:01Z</time>
      </trkpt>
      <trkpt lat="47.25204" lon="-2.25519">
        <ele>13</ele>
        <time>2014-05-18T10:45:06Z</time>
      </trkpt>
      <trkpt lat="47.25197" lon="-2.25517">
        <ele>12</ele>
        <time>2014-05-18T10:45:11Z</time>
      </trkpt>
      <trkpt lat="47.2519" lon="-2.25516">
        <ele>12</ele>
        <time>2014-05-18T10:45:18Z</time>
      </trkpt>
      <trkpt lat="47.2518" lon="-2.25509">
        <ele>10</ele>
        <time>2014-05-18T10:45:29Z</time>
      </trkpt>
      <trkpt lat="47.25167" lon="-2.25511">
        <ele>9</ele>
        <time>2014-05-18T10:45:39Z</time>
      </trkpt>
      <trkpt lat="47.25159" lon="-2.25522">
        <ele>7</ele>
        <time>2014-05-18T10:45:49Z</time>
      </trkpt>
      <trkpt lat="47.25158" lon="-2.2553">
        <ele>7</ele>
        <time>2014-05-18T10:45:54Z</time>
      </trkpt>
      <trkpt lat="47.25154" lon="-2.25539">
        <ele>8</ele>
        <time>2014-05-18T10:46:01Z</time>
      </trkpt>
      <trkpt lat="47.25151" lon="-2.25547">
        <ele>8</ele>
        <time>2014-05-18T10:46:06Z</time>
      </trkpt>
      <trkpt lat="47.25148" lon="-2.25556">
        <ele>8</ele>
        <time>2014-05-18T10:46:12Z</time>
      </trkpt>
      <trkpt lat="47.25148" lon="-2.25566">
        <ele>9</ele>
        <time>2014-05-18T10:46:20Z</time>
      </trkpt>
      <trkpt lat="47.25142" lon="-2.25572">
        <ele>9</ele>
        <time>2014-05-18T10:46:28Z</time>
      </trkpt>
      <trkpt lat="47.25136" lon="-2.25573">
        <ele>8</ele>
        <time>2014-05-18T10:46:35Z</time>
      </trkpt>
      <trkpt lat="47.25129" lon="-2.25577">
        <ele>8</ele>
        <time>2014-05-18T10:46:45Z</time>
      </trkpt>
      <trkpt lat="47.25123" lon="-2.25582">
        <ele>8</ele>
        <time>2014-05-18T10:46:50Z</time>
      </trkpt>
      <trkpt lat="47.25121" lon="-2.25594">
        <ele>12</ele>
        <time>2014-05-18T10:47:04Z</time>
      </trkpt>
      <trkpt lat="47.25116" lon="-2.25596">
        <ele>12</ele>
        <time>2014-05-18T10:47:10Z</time>
      </trkpt>
      <trkpt lat="47.2511" lon="-2.2559">
        <ele>11</ele>
        <time>2014-05-18T10:47:22Z</time>
      </trkpt>
      <trkpt lat="47.25105" lon="-2.25593">
        <ele>11</ele>
        <time>2014-05-18T10:47:28Z</time>
      </trkpt>
      <trkpt lat="47.25101" lon="-2.25597">
        <ele>11</ele>
        <time>2014-05-18T10:47:35Z</time>
      </trkpt>
      <trkpt lat="47.25098" lon="-2.25602">
        <ele>11</ele>
        <time>2014-05-18T10:47:40Z</time>
      </trkpt>
      <trkpt lat="47.25094" lon="-2.25612">
        <ele>12</ele>
        <time>2014-05-18T10:47:51Z</time>
      </trkpt>
      <trkpt lat="47.25091" lon="-2.25624">
        <ele>13</ele>
        <time>2014-05-18T10:47:58Z</time>
      </trkpt>
      <trkpt lat="47.25085" lon="-2.25626">
        <ele>13</ele>
        <time>2014-05-18T10:48:11Z</time>
      </trkpt>
      <trkpt lat="47.2508" lon="-2.25627">
        <ele>9</ele>
        <time>2014-05-18T10:48:24Z</time>
      </trkpt>
      <trkpt lat="47.25076" lon="-2.25629">
        <ele>9</ele>
        <time>2014-05-18T10:48:29Z</time>
      </trkpt>
      <trkpt lat="47.25069" lon="-2.25631">
        <ele>9</ele>
        <time>2014-05-18T10:48:36Z</time>
      </trkpt>
      <trkpt lat="47.25063" lon="-2.25635">
        <ele>9</ele>
        <time>2014-05-18T10:48:41Z</time>
      </trkpt>
      <trkpt lat="47.25057" lon="-2.25634">
        <ele>9</ele>
        <time>2014-05-18T10:48:47Z</time>
      </trkpt>
      <trkpt lat="47.25053" lon="-2.25626">
        <ele>8</ele>
        <time>2014-05-18T10:48:53Z</time>
      </trkpt>
      <trkpt lat="47.25047" lon="-2.25616">
        <ele>8</ele>
        <time>2014-05-18T10:49:07Z</time>
      </trkpt>
      <trkpt lat="47.2504" lon="-2.25608">
        <ele>7</ele>
        <time>2014-05-18T10:49:19Z</time>
      </trkpt>
      <trkpt lat="47.25035" lon="-2.2561">
        <ele>7</ele>
        <time>2014-05-18T10:49:25Z</time>
      </trkpt>
      <trkpt lat="47.25031" lon="-2.25615">
        <ele>7</ele>
        <time>2014-05-18T10:49:33Z</time>
      </trkpt>
      <trkpt lat="47.25028" lon="-2.25623">
        <ele>8</ele>
        <time>2014-05-18T10:49:39Z</time>
      </trkpt>
      <trkpt lat="47.25025" lon="-2.25636">
        <ele>8</ele>
        <time>2014-05-18T10:49:50Z</time>
      </trkpt>
      <trkpt lat="47.25022" lon="-2.25642">
        <ele>8</ele>
        <time>2014-05-18T10:49:56Z</time>
      </trkpt>
      <trkpt lat="47.25019" lon="-2.25648">
        <ele>8</ele>
        <time>2014-05-18T10:50:01Z</time>
      </trkpt>
      <trkpt lat="47.25014" lon="-2.25652">
        <ele>8</ele>
        <time>2014-05-18T10:50:08Z</time>
      </trkpt>
      <trkpt lat="47.25009" lon="-2.25656">
        <ele>9</ele>
        <time>2014-05-18T10:50:13Z</time>
      </trkpt>
      <trkpt lat="47.25007" lon="-2.25664">
        <ele>9</ele>
        <time>2014-05-18T10:50:19Z</time>
      </trkpt>
      <trkpt lat="47.25014" lon="-2.25675">
        <ele>11</ele>
        <time>2014-05-18T10:50:30Z</time>
      </trkpt>
      <trkpt lat="47.25015" lon="-2.25687">
        <ele>12</ele>
        <time>2014-05-18T10:50:39Z</time>
      </trkpt>
      <trkpt lat="47.25017" lon="-2.25693">
        <ele>13</ele>
        <time>2014-05-18T10:50:56Z</time>
      </trkpt>
      <trkpt lat="47.25013" lon="-2.25699">
        <ele>13</ele>
        <time>2014-05-18T10:51:14Z</time>
      </trkpt>
      <trkpt lat="47.25005" lon="-2.25701">
        <ele>13</ele>
        <time>2014-05-18T10:51:26Z</time>
      </trkpt>
      <trkpt lat="47.24999" lon="-2.25713">
        <ele>12</ele>
        <time>2014-05-18T10:51:41Z</time>
      </trkpt>
      <trkpt lat="47.24996" lon="-2.25719">
        <ele>12</ele>
        <time>2014-05-18T10:51:46Z</time>
      </trkpt>
      <trkpt lat="47.24994" lon="-2.25728">
        <ele>13</ele>
        <time>2014-05-18T10:51:53Z</time>
      </trkpt>
      <trkpt lat="47.24992" lon="-2.25737">
        <ele>13</ele>
        <time>2014-05-18T10:51:59Z</time>
      </trkpt>
      <trkpt lat="47.24989" lon="-2.25744">
        <ele>13</ele>
        <time>2014-05-18T10:52:04Z</time>
      </trkpt>
      <trkpt lat="47.24988" lon="-2.25751">
        <ele>15</ele>
        <time>2014-05-18T10:52:10Z</time>
      </trkpt>
      <trkpt lat="47.24988" lon="-2.25758">
        <ele>15</ele>
        <time>2014-05-18T10:52:15Z</time>
      </trkpt>
      <trkpt lat="47.24986" lon="-2.25766">
        <ele>15</ele>
        <time>2014-05-18T10:52:22Z</time>
      </trkpt>
      <trkpt lat="47.24984" lon="-2.25775">
        <ele>16</ele>
        <time>2014-05-18T10:52:28Z</time>
      </trkpt>
      <trkpt lat="47.24982" lon="-2.25784">
        <ele>16</ele>
        <time>2014-05-18T10:52:35Z</time>
      </trkpt>
      <trkpt lat="47.2498" lon="-2.25791">
        <ele>16</ele>
        <time>2014-05-18T10:52:41Z</time>
      </trkpt>
      <trkpt lat="47.24978" lon="-2.25797">
        <ele>17</ele>
        <time>2014-05-18T10:52:47Z</time>
      </trkpt>
      <trkpt lat="47.24976" lon="-2.25803">
        <ele>17</ele>
        <time>2014-05-18T10:52:52Z</time>
      </trkpt>
      <trkpt lat="47.24975" lon="-2.2581">
        <ele>17</ele>
        <time>2014-05-18T10:52:57Z</time>
      </trkpt>
      <trkpt lat="47.24973" lon="-2.25818">
        <ele>18</ele>
        <time>2014-05-18T10:53:02Z</time>
      </trkpt>
      <trkpt lat="47.24971" lon="-2.25825">
        <ele>18</ele>
        <time>2014-05-18T10:53:07Z</time>
      </trkpt>
      <trkpt lat="47.24968" lon="-2.25838">
        <ele>20</ele>
        <time>2014-05-18T10:53:18Z</time>
      </trkpt>
      <trkpt lat="47.24965" lon="-2.25849">
        <ele>20</ele>
        <time>2014-05-18T10:53:29Z</time>
      </trkpt>
      <trkpt lat="47.24959" lon="-2.25864">
        <ele>21</ele>
        <time>2014-05-18T10:53:40Z</time>
      </trkpt>
      <trkpt lat="47.24956" lon="-2.2587">
        <ele>21</ele>
        <time>2014-05-18T10:53:45Z</time>
      </trkpt>
      <trkpt lat="47.24953" lon="-2.25878">
        <ele>20</ele>
        <time>2014-05-18T10:53:50Z</time>
      </trkpt>
      <trkpt lat="47.24949" lon="-2.25886">
        <ele>20</ele>
        <time>2014-05-18T10:53:55Z</time>
      </trkpt>
      <trkpt lat="47.24945" lon="-2.25895">
        <ele>20</ele>
        <time>2014-05-18T10:54:05Z</time>
      </trkpt>
      <trkpt lat="47.24943" lon="-2.25903">
        <ele>20</ele>
        <time>2014-05-18T10:54:10Z</time>
      </trkpt>
      <trkpt lat="47.24943" lon="-2.2591">
        <ele>19</ele>
        <time>2014-05-18T10:54:16Z</time>
      </trkpt>
      <trkpt lat="47.2494" lon="-2.25921">
        <ele>21</ele>
        <time>2014-05-18T10:54:21Z</time>
      </trkpt>
      <trkpt lat="47.24935" lon="-2.25925">
        <ele>21</ele>
        <time>2014-05-18T10:54:26Z</time>
      </trkpt>
      <trkpt lat="47.24928" lon="-2.25934">
        <ele>21</ele>
        <time>2014-05-18T10:54:34Z</time>
      </trkpt>
      <trkpt lat="47.24927" lon="-2.25944">
        <ele>22</ele>
        <time>2014-05-18T10:54:53Z</time>
      </trkpt>
      <trkpt lat="47.24929" lon="-2.25952">
        <ele>23</ele>
        <time>2014-05-18T10:54:59Z</time>
      </trkpt>
      <trkpt lat="47.24928" lon="-2.25963">
        <ele>24</ele>
        <time>2014-05-18T10:55:23Z</time>
      </trkpt>
      <trkpt lat="47.24931" lon="-2.25969">
        <ele>24</ele>
        <time>2014-05-18T10:55:45Z</time>
      </trkpt>
      <trkpt lat="47.24938" lon="-2.25967">
        <ele>24</ele>
        <time>2014-05-18T10:55:55Z</time>
      </trkpt>
      <trkpt lat="47.24942" lon="-2.25965">
        <ele>24</ele>
        <time>2014-05-18T10:56:37Z</time>
      </trkpt>
      <trkpt lat="47.2494" lon="-2.25972">
        <ele>25</ele>
        <time>2014-05-18T10:56:43Z</time>
      </trkpt>
      <trkpt lat="47.24939" lon="-2.25986">
        <ele>25</ele>
        <time>2014-05-18T10:56:56Z</time>
      </trkpt>
      <trkpt lat="47.24937" lon="-2.25994">
        <ele>25</ele>
        <time>2014-05-18T10:57:02Z</time>
      </trkpt>
      <trkpt lat="47.24937" lon="-2.26005">
        <ele>28</ele>
        <time>2014-05-18T10:57:12Z</time>
      </trkpt>
      <trkpt lat="47.24932" lon="-2.25998">
        <ele>25</ele>
        <time>2014-05-18T10:57:23Z</time>
      </trkpt>
      <trkpt lat="47.24928" lon="-2.25994">
        <ele>25</ele>
        <time>2014-05-18T10:57:40Z</time>
      </trkpt>
      <trkpt lat="47.24922" lon="-2.25994">
        <ele>26</ele>
        <time>2014-05-18T10:57:46Z</time>
      </trkpt>
      <trkpt lat="47.24919" lon="-2.26002">
        <ele>26</ele>
        <time>2014-05-18T10:57:53Z</time>
      </trkpt>
      <trkpt lat="47.24914" lon="-2.26004">
        <ele>26</ele>
        <time>2014-05-18T10:57:58Z</time>
      </trkpt>
      <trkpt lat="47.24907" lon="-2.26003">
        <ele>25</ele>
        <time>2014-05-18T10:58:03Z</time>
      </trkpt>
      <trkpt lat="47.24902" lon="-2.26006">
        <ele>25</ele>
        <time>2014-05-18T10:58:08Z</time>
      </trkpt>
      <trkpt lat="47.24897" lon="-2.26013">
        <ele>25</ele>
        <time>2014-05-18T10:58:22Z</time>
      </trkpt>
      <trkpt lat="47.24893" lon="-2.26017">
        <ele>25</ele>
        <time>2014-05-18T10:58:28Z</time>
      </trkpt>
      <trkpt lat="47.24887" lon="-2.26016">
        <ele>25</ele>
        <time>2014-05-18T10:58:37Z</time>
      </trkpt>
      <trkpt lat="47.24883" lon="-2.26013">
        <ele>24</ele>
        <time>2014-05-18T10:58:42Z</time>
      </trkpt>
      <trkpt lat="47.24875" lon="-2.26005">
        <ele>24</ele>
        <time>2014-05-18T10:58:56Z</time>
      </trkpt>
      <trkpt lat="47.24868" lon="-2.26006">
        <ele>23</ele>
        <time>2014-05-18T10:59:03Z</time>
      </trkpt>
      <trkpt lat="47.2486" lon="-2.26009">
        <ele>23</ele>
        <time>2014-05-18T10:59:08Z</time>
      </trkpt>
      <trkpt lat="47.24854" lon="-2.2601">
        <ele>22</ele>
        <time>2014-05-18T10:59:15Z</time>
      </trkpt>
      <trkpt lat="47.2485" lon="-2.26013">
        <ele>22</ele>
        <time>2014-05-18T10:59:26Z</time>
      </trkpt>
      <trkpt lat="47.24844" lon="-2.26014">
        <ele>22</ele>
        <time>2014-05-18T10:59:32Z</time>
      </trkpt>
      <trkpt lat="47.24838" lon="-2.26014">
        <ele>21</ele>
        <time>2014-05-18T10:59:37Z</time>
      </trkpt>
      <trkpt lat="47.24833" lon="-2.26004">
        <ele>19</ele>
        <time>2014-05-18T10:59:51Z</time>
      </trkpt>
      <trkpt lat="47.24827" lon="-2.25993">
        <ele>16</ele>
        <time>2014-05-18T10:59:56Z</time>
      </trkpt>
      <trkpt lat="47.24822" lon="-2.25988">
        <ele>14</ele>
        <time>2014-05-18T11:00:01Z</time>
      </trkpt>
      <trkpt lat="47.24816" lon="-2.25981">
        <ele>13</ele>
        <time>2014-05-18T11:00:09Z</time>
      </trkpt>
      <trkpt lat="47.24807" lon="-2.25976">
        <ele>12</ele>
        <time>2014-05-18T11:00:14Z</time>
      </trkpt>
      <trkpt lat="47.24803" lon="-2.25987">
        <ele>12</ele>
        <time>2014-05-18T11:00:26Z</time>
      </trkpt>
      <trkpt lat="47.24802" lon="-2.26002">
        <ele>17</ele>
        <time>2014-05-18T11:00:33Z</time>
      </trkpt>
      <trkpt lat="47.248" lon="-2.26011">
        <ele>17</ele>
        <time>2014-05-18T11:00:38Z</time>
      </trkpt>
      <trkpt lat="47.24797" lon="-2.26019">
        <ele>17</ele>
        <time>2014-05-18T11:00:45Z</time>
      </trkpt>
      <trkpt lat="47.24791" lon="-2.26022">
        <ele>16</ele>
        <time>2014-05-18T11:00:57Z</time>
      </trkpt>
      <trkpt lat="47.2478" lon="-2.2603">
        <ele>16</ele>
        <time>2014-05-18T11:01:02Z</time>
      </trkpt>
      <trkpt lat="47.24775" lon="-2.26035">
        <ele>16</ele>
        <time>2014-05-18T11:01:10Z</time>
      </trkpt>
      <trkpt lat="47.24774" lon="-2.26046">
        <ele>16</ele>
        <time>2014-05-18T11:01:15Z</time>
      </trkpt>
      <trkpt lat="47.24769" lon="-2.26056">
        <ele>17</ele>
        <time>2014-05-18T11:01:23Z</time>
      </trkpt>
      <trkpt lat="47.24764" lon="-2.26061">
        <ele>17</ele>
        <time>2014-05-18T11:01:31Z</time>
      </trkpt>
      <trkpt lat="47.2476" lon="-2.26066">
        <ele>17</ele>
        <time>2014-05-18T11:01:36Z</time>
      </trkpt>
      <trkpt lat="47.24756" lon="-2.26068">
        <ele>17</ele>
        <time>2014-05-18T11:01:41Z</time>
      </trkpt>
      <trkpt lat="47.24748" lon="-2.26075">
        <ele>16</ele>
        <time>2014-05-18T11:01:55Z</time>
      </trkpt>
      <trkpt lat="47.24741" lon="-2.26078">
        <ele>16</ele>
        <time>2014-05-18T11:02:04Z</time>
      </trkpt>
      <trkpt lat="47.24733" lon="-2.2608">
        <ele>15</ele>
        <time>2014-05-18T11:02:11Z</time>
      </trkpt>
      <trkpt lat="47.24727" lon="-2.26082">
        <ele>15</ele>
        <time>2014-05-18T11:02:17Z</time>
      </trkpt>
      <trkpt lat="47.24722" lon="-2.26085">
        <ele>18</ele>
        <time>2014-05-18T11:02:23Z</time>
      </trkpt>
      <trkpt lat="47.24715" lon="-2.26086">
        <ele>18</ele>
        <time>2014-05-18T11:02:31Z</time>
      </trkpt>
      <trkpt lat="47.24708" lon="-2.26083">
        <ele>14</ele>
        <time>2014-05-18T11:02:37Z</time>
      </trkpt>
      <trkpt lat="47.24698" lon="-2.26079">
        <ele>14</ele>
        <time>2014-05-18T11:02:42Z</time>
      </trkpt>
      <trkpt lat="47.24694" lon="-2.26075">
        <ele>14</ele>
        <time>2014-05-18T11:02:47Z</time>
      </trkpt>
      <trkpt lat="47.2469" lon="-2.26079">
        <ele>14</ele>
        <time>2014-05-18T11:02:52Z</time>
      </trkpt>
      <trkpt lat="47.24689" lon="-2.26087">
        <ele>17</ele>
        <time>2014-05-18T11:03:00Z</time>
      </trkpt>
      <trkpt lat="47.24687" lon="-2.26094">
        <ele>17</ele>
        <time>2014-05-18T11:03:05Z</time>
      </trkpt>
      <trkpt lat="47.24685" lon="-2.26102">
        <ele>18</ele>
        <time>2014-05-18T11:03:10Z</time>
      </trkpt>
      <trkpt lat="47.24682" lon="-2.2611">
        <ele>18</ele>
        <time>2014-05-18T11:03:15Z</time>
      </trkpt>
      <trkpt lat="47.24679" lon="-2.26121">
        <ele>19</ele>
        <time>2014-05-18T11:03:22Z</time>
      </trkpt>
      <trkpt lat="47.24674" lon="-2.26123">
        <ele>19</ele>
        <time>2014-05-18T11:03:30Z</time>
      </trkpt>
      <trkpt lat="47.24677" lon="-2.26115">
        <ele>19</ele>
        <time>2014-05-18T11:03:42Z</time>
      </trkpt>
      <trkpt lat="47.24677" lon="-2.26107">
        <ele>18</ele>
        <time>2014-05-18T11:03:47Z</time>
      </trkpt>
      <trkpt lat="47.24683" lon="-2.26093">
        <ele>17</ele>
        <time>2014-05-18T11:03:57Z</time>
      </trkpt>
      <trkpt lat="47.24684" lon="-2.26081">
        <ele>14</ele>
        <time>2014-05-18T11:04:05Z</time>
      </trkpt>
      <trkpt lat="47.24679" lon="-2.26073">
        <ele>14</ele>
        <time>2014-05-18T11:04:10Z</time>
      </trkpt>
      <trkpt lat="47.24673" lon="-2.26071">
        <ele>14</ele>
        <time>2014-05-18T11:04:16Z</time>
      </trkpt>
      <trkpt lat="47.24668" lon="-2.26066">
        <ele>14</ele>
        <time>2014-05-18T11:04:23Z</time>
      </trkpt>
      <trkpt lat="47.24667" lon="-2.26059">
        <ele>14</ele>
        <time>2014-05-18T11:04:29Z</time>
      </trkpt>
      <trkpt lat="47.24663" lon="-2.26053">
        <ele>12</ele>
        <time>2014-05-18T11:04:34Z</time>
      </trkpt>
      <trkpt lat="47.24659" lon="-2.26053">
        <ele>12</ele>
        <time>2014-05-18T11:04:43Z</time>
      </trkpt>
      <trkpt lat="47.24653" lon="-2.26054">
        <ele>12</ele>
        <time>2014-05-18T11:04:58Z</time>
      </trkpt>
      <trkpt lat="47.24646" lon="-2.26061">
        <ele>11</ele>
        <time>2014-05-18T11:05:08Z</time>
      </trkpt>
      <trkpt lat="47.2464" lon="-2.26067">
        <ele>11</ele>
        <time>2014-05-18T11:05:15Z</time>
      </trkpt>
      <trkpt lat="47.24635" lon="-2.26072">
        <ele>11</ele>
        <time>2014-05-18T11:05:26Z</time>
      </trkpt>
      <trkpt lat="47.24628" lon="-2.26079">
        <ele>10</ele>
        <time>2014-05-18T11:05:35Z</time>
      </trkpt>
      <trkpt lat="47.24624" lon="-2.26082">
        <ele>10</ele>
        <time>2014-05-18T11:05:40Z</time>
      </trkpt>
      <trkpt lat="47.24618" lon="-2.26087">
        <ele>13</ele>
        <time>2014-05-18T11:05:46Z</time>
      </trkpt>
      <trkpt lat="47.24611" lon="-2.26097">
        <ele>13</ele>
        <time>2014-05-18T11:05:58Z</time>
      </trkpt>
      <trkpt lat="47.24604" lon="-2.26101">
        <ele>13</ele>
        <time>2014-05-18T11:06:06Z</time>
      </trkpt>
      <trkpt lat="47.246" lon="-2.26105">
        <ele>13</ele>
        <time>2014-05-18T11:06:12Z</time>
      </trkpt>
      <trkpt lat="47.24596" lon="-2.26109">
        <ele>13</ele>
        <time>2014-05-18T11:06:17Z</time>
      </trkpt>
      <trkpt lat="47.24592" lon="-2.2611">
        <ele>13</ele>
        <time>2014-05-18T11:06:24Z</time>
      </trkpt>
      <trkpt lat="47.24585" lon="-2.2611">
        <ele>13</ele>
        <time>2014-05-18T11:06:31Z</time>
      </trkpt>
      <trkpt lat="47.24579" lon="-2.26114">
        <ele>10</ele>
        <time>2014-05-18T11:06:37Z</time>
      </trkpt>
      <trkpt lat="47.24575" lon="-2.26118">
        <ele>11</ele>
        <time>2014-05-18T11:06:42Z</time>
      </trkpt>
      <trkpt lat="47.2457" lon="-2.26116">
        <ele>10</ele>
        <time>2014-05-18T11:06:48Z</time>
      </trkpt>
      <trkpt lat="47.24565" lon="-2.26117">
        <ele>10</ele>
        <time>2014-05-18T11:06:54Z</time>
      </trkpt>
      <trkpt lat="47.24561" lon="-2.26116">
        <ele>10</ele>
        <time>2014-05-18T11:06:59Z</time>
      </trkpt>
      <trkpt lat="47.24556" lon="-2.26119">
        <ele>10</ele>
        <time>2014-05-18T11:07:06Z</time>
      </trkpt>
      <trkpt lat="47.24551" lon="-2.26123">
        <ele>11</ele>
        <time>2014-05-18T11:07:12Z</time>
      </trkpt>
      <trkpt lat="47.24546" lon="-2.26123">
        <ele>10</ele>
        <time>2014-05-18T11:07:18Z</time>
      </trkpt>
      <trkpt lat="47.24541" lon="-2.26123">
        <ele>10</ele>
        <time>2014-05-18T11:07:24Z</time>
      </trkpt>
      <trkpt lat="47.24533" lon="-2.26121">
        <ele>10</ele>
        <time>2014-05-18T11:07:36Z</time>
      </trkpt>
      <trkpt lat="47.24524" lon="-2.2612">
        <ele>10</ele>
        <time>2014-05-18T11:07:50Z</time>
      </trkpt>
      <trkpt lat="47.24518" lon="-2.26122">
        <ele>10</ele>
        <time>2014-05-18T11:07:57Z</time>
      </trkpt>
      <trkpt lat="47.24513" lon="-2.26124">
        <ele>10</ele>
        <time>2014-05-18T11:08:03Z</time>
      </trkpt>
      <trkpt lat="47.24509" lon="-2.26132">
        <ele>10</ele>
        <time>2014-05-18T11:08:09Z</time>
      </trkpt>
      <trkpt lat="47.24506" lon="-2.26139">
        <ele>11</ele>
        <time>2014-05-18T11:08:14Z</time>
      </trkpt>
      <trkpt lat="47.2451" lon="-2.26144">
        <ele>11</ele>
        <time>2014-05-18T11:08:31Z</time>
      </trkpt>
      <trkpt lat="47.24517" lon="-2.26139">
        <ele>11</ele>
        <time>2014-05-18T11:08:51Z</time>
      </trkpt>
      <trkpt lat="47.24521" lon="-2.26143">
        <ele>11</ele>
        <time>2014-05-18T11:09:01Z</time>
      </trkpt>
      <trkpt lat="47.24519" lon="-2.26153">
        <ele>12</ele>
        <time>2014-05-18T11:09:12Z</time>
      </trkpt>
      <trkpt lat="47.24514" lon="-2.26157">
        <ele>12</ele>
        <time>2014-05-18T11:10:02Z</time>
      </trkpt>
      <trkpt lat="47.2451" lon="-2.26162">
        <ele>12</ele>
        <time>2014-05-18T11:10:07Z</time>
      </trkpt>
      <trkpt lat="47.24505" lon="-2.26165">
        <ele>13</ele>
        <time>2014-05-18T11:10:13Z</time>
      </trkpt>
      <trkpt lat="47.24501" lon="-2.26168">
        <ele>13</ele>
        <time>2014-05-18T11:10:18Z</time>
      </trkpt>
      <trkpt lat="47.24496" lon="-2.2617">
        <ele>14</ele>
        <time>2014-05-18T11:10:24Z</time>
      </trkpt>
      <trkpt lat="47.2449" lon="-2.26172">
        <ele>14</ele>
        <time>2014-05-18T11:10:30Z</time>
      </trkpt>
      <trkpt lat="47.24485" lon="-2.26176">
        <ele>14</ele>
        <time>2014-05-18T11:10:35Z</time>
      </trkpt>
      <trkpt lat="47.24479" lon="-2.26174">
        <ele>14</ele>
        <time>2014-05-18T11:10:42Z</time>
      </trkpt>
      <trkpt lat="47.24475" lon="-2.26174">
        <ele>14</ele>
        <time>2014-05-18T11:10:48Z</time>
      </trkpt>
      <trkpt lat="47.24468" lon="-2.26175">
        <ele>14</ele>
        <time>2014-05-18T11:10:54Z</time>
      </trkpt>
      <trkpt lat="47.2446" lon="-2.26176">
        <ele>14</ele>
        <time>2014-05-18T11:10:59Z</time>
      </trkpt>
      <trkpt lat="47.24455" lon="-2.26176">
        <ele>14</ele>
        <time>2014-05-18T11:11:08Z</time>
      </trkpt>
      <trkpt lat="47.2445" lon="-2.2618">
        <ele>14</ele>
        <time>2014-05-18T11:11:36Z</time>
      </trkpt>
      <trkpt lat="47.24445" lon="-2.26181">
        <ele>13</ele>
        <time>2014-05-18T11:11:41Z</time>
      </trkpt>
      <trkpt lat="47.24439" lon="-2.26184">
        <ele>13</ele>
        <time>2014-05-18T11:11:46Z</time>
      </trkpt>
      <trkpt lat="47.24434" lon="-2.26185">
        <ele>13</ele>
        <time>2014-05-18T11:11:52Z</time>
      </trkpt>
      <trkpt lat="47.24428" lon="-2.26191">
        <ele>13</ele>
        <time>2014-05-18T11:12:42Z</time>
      </trkpt>
      <trkpt lat="47.24428" lon="-2.26197">
        <ele>14</ele>
        <time>2014-05-18T11:12:48Z</time>
      </trkpt>
      <trkpt lat="47.24429" lon="-2.26212">
        <ele>16</ele>
        <time>2014-05-18T11:13:01Z</time>
      </trkpt>
      <trkpt lat="47.24428" lon="-2.26219">
        <ele>16</ele>
        <time>2014-05-18T11:13:07Z</time>
      </trkpt>
      <trkpt lat="47.24428" lon="-2.26228">
        <ele>17</ele>
        <time>2014-05-18T11:13:16Z</time>
      </trkpt>
      <trkpt lat="47.24429" lon="-2.26239">
        <ele>18</ele>
        <time>2014-05-18T11:13:26Z</time>
      </trkpt>
      <trkpt lat="47.24426" lon="-2.26253">
        <ele>22</ele>
        <time>2014-05-18T11:13:42Z</time>
      </trkpt>
      <trkpt lat="47.24424" lon="-2.26264">
        <ele>23</ele>
        <time>2014-05-18T11:13:58Z</time>
      </trkpt>
      <trkpt lat="47.24417" lon="-2.26261">
        <ele>22</ele>
        <time>2014-05-18T11:14:11Z</time>
      </trkpt>
      <trkpt lat="47.24412" lon="-2.26262">
        <ele>20</ele>
        <time>2014-05-18T11:14:19Z</time>
      </trkpt>
      <trkpt lat="47.24405" lon="-2.26257">
        <ele>20</ele>
        <time>2014-05-18T11:14:27Z</time>
      </trkpt>
      <trkpt lat="47.24397" lon="-2.2625">
        <ele>20</ele>
        <time>2014-05-18T11:14:39Z</time>
      </trkpt>
      <trkpt lat="47.24383" lon="-2.26254">
        <ele>20</ele>
        <time>2014-05-18T11:14:54Z</time>
      </trkpt>
      <trkpt lat="47.24375" lon="-2.26259">
        <ele>20</ele>
        <time>2014-05-18T11:15:06Z</time>
      </trkpt>
      <trkpt lat="47.24367" lon="-2.26261">
        <ele>19</ele>
        <time>2014-05-18T11:15:21Z</time>
      </trkpt>
      <trkpt lat="47.24362" lon="-2.26262">
        <ele>19</ele>
        <time>2014-05-18T11:15:34Z</time>
      </trkpt>
      <trkpt lat="47.24353" lon="-2.26266">
        <ele>19</ele>
        <time>2014-05-18T11:15:45Z</time>
      </trkpt>
      <trkpt lat="47.24347" lon="-2.26272">
        <ele>19</ele>
        <time>2014-05-18T11:15:52Z</time>
      </trkpt>
      <trkpt lat="47.24342" lon="-2.2627">
        <ele>18</ele>
        <time>2014-05-18T11:16:07Z</time>
      </trkpt>
      <trkpt lat="47.24339" lon="-2.26265">
        <ele>17</ele>
        <time>2014-05-18T11:16:12Z</time>
      </trkpt>
      <trkpt lat="47.24334" lon="-2.26253">
        <ele>15</ele>
        <time>2014-05-18T11:16:25Z</time>
      </trkpt>
      <trkpt lat="47.24329" lon="-2.26245">
        <ele>13</ele>
        <time>2014-05-18T11:16:38Z</time>
      </trkpt>
      <trkpt lat="47.24327" lon="-2.26234">
        <ele>13</ele>
        <time>2014-05-18T11:16:46Z</time>
      </trkpt>
      <trkpt lat="47.24321" lon="-2.26227">
        <ele>12</ele>
        <time>2014-05-18T11:16:52Z</time>
      </trkpt>
      <trkpt lat="47.24313" lon="-2.26224">
        <ele>12</ele>
        <time>2014-05-18T11:17:01Z</time>
      </trkpt>
      <trkpt lat="47.24308" lon="-2.26224">
        <ele>11</ele>
        <time>2014-05-18T11:17:06Z</time>
      </trkpt>
      <trkpt lat="47.24298" lon="-2.26223">
        <ele>11</ele>
        <time>2014-05-18T11:17:18Z</time>
      </trkpt>
      <trkpt lat="47.24289" lon="-2.26223">
        <ele>10</ele>
        <time>2014-05-18T11:17:28Z</time>
      </trkpt>
      <trkpt lat="47.24283" lon="-2.26225">
        <ele>10</ele>
        <time>2014-05-18T11:17:36Z</time>
      </trkpt>
      <trkpt lat="47.2428" lon="-2.26238">
        <ele>10</ele>
        <time>2014-05-18T11:17:45Z</time>
      </trkpt>
      <trkpt lat="47.2428" lon="-2.26253">
        <ele>13</ele>
        <time>2014-05-18T11:17:54Z</time>
      </trkpt>
      <trkpt lat="47.24281" lon="-2.26262">
        <ele>14</ele>
        <time>2014-05-18T11:18:00Z</time>
      </trkpt>
      <trkpt lat="47.24279" lon="-2.2627">
        <ele>14</ele>
        <time>2014-05-18T11:18:10Z</time>
      </trkpt>
      <trkpt lat="47.24277" lon="-2.26281">
        <ele>15</ele>
        <time>2014-05-18T11:18:24Z</time>
      </trkpt>
      <trkpt lat="47.2427" lon="-2.26287">
        <ele>15</ele>
        <time>2014-05-18T11:18:38Z</time>
      </trkpt>
      <trkpt lat="47.24265" lon="-2.26294">
        <ele>15</ele>
        <time>2014-05-18T11:18:46Z</time>
      </trkpt>
      <trkpt lat="47.24259" lon="-2.26296">
        <ele>16</ele>
        <time>2014-05-18T11:18:54Z</time>
      </trkpt>
      <trkpt lat="47.24252" lon="-2.26299">
        <ele>16</ele>
        <time>2014-05-18T11:19:02Z</time>
      </trkpt>
      <trkpt lat="47.24245" lon="-2.26295">
        <ele>12</ele>
        <time>2014-05-18T11:19:11Z</time>
      </trkpt>
      <trkpt lat="47.2424" lon="-2.26293">
        <ele>12</ele>
        <time>2014-05-18T11:19:17Z</time>
      </trkpt>
      <trkpt lat="47.24235" lon="-2.26287">
        <ele>11</ele>
        <time>2014-05-18T11:19:24Z</time>
      </trkpt>
      <trkpt lat="47.24226" lon="-2.2629">
        <ele>11</ele>
        <time>2014-05-18T11:19:35Z</time>
      </trkpt>
      <trkpt lat="47.24221" lon="-2.26295">
        <ele>12</ele>
        <time>2014-05-18T11:19:42Z</time>
      </trkpt>
      <trkpt lat="47.24221" lon="-2.26302">
        <ele>12</ele>
        <time>2014-05-18T11:19:49Z</time>
      </trkpt>
      <trkpt lat="47.24225" lon="-2.26315">
        <ele>13</ele>
        <time>2014-05-18T11:20:02Z</time>
      </trkpt>
      <trkpt lat="47.24223" lon="-2.26322">
        <ele>14</ele>
        <time>2014-05-18T11:20:11Z</time>
      </trkpt>
      <trkpt lat="47.2422" lon="-2.26331">
        <ele>13</ele>
        <time>2014-05-18T11:20:17Z</time>
      </trkpt>
      <trkpt lat="47.24214" lon="-2.2634">
        <ele>15</ele>
        <time>2014-05-18T11:20:33Z</time>
      </trkpt>
      <trkpt lat="47.24209" lon="-2.26339">
        <ele>14</ele>
        <time>2014-05-18T11:20:38Z</time>
      </trkpt>
      <trkpt lat="47.24199" lon="-2.26342">
        <ele>13</ele>
        <time>2014-05-18T11:20:49Z</time>
      </trkpt>
      <trkpt lat="47.24192" lon="-2.26342">
        <ele>12</ele>
        <time>2014-05-18T11:20:57Z</time>
      </trkpt>
      <trkpt lat="47.24187" lon="-2.26344">
        <ele>11</ele>
        <time>2014-05-18T11:21:03Z</time>
      </trkpt>
      <trkpt lat="47.24179" lon="-2.26345">
        <ele>10</ele>
        <time>2014-05-18T11:21:09Z</time>
      </trkpt>
      <trkpt lat="47.2418" lon="-2.26356">
        <ele>11</ele>
        <time>2014-05-18T11:21:16Z</time>
      </trkpt>
      <trkpt lat="47.2418" lon="-2.26366">
        <ele>12</ele>
        <time>2014-05-18T11:21:22Z</time>
      </trkpt>
      <trkpt lat="47.24182" lon="-2.26375">
        <ele>13</ele>
        <time>2014-05-18T11:21:28Z</time>
      </trkpt>
      <trkpt lat="47.24182" lon="-2.26386">
        <ele>13</ele>
        <time>2014-05-18T11:21:34Z</time>
      </trkpt>
      <trkpt lat="47.24186" lon="-2.26394">
        <ele>13</ele>
        <time>2014-05-18T11:21:42Z</time>
      </trkpt>
      <trkpt lat="47.24189" lon="-2.26399">
        <ele>13</ele>
        <time>2014-05-18T11:21:52Z</time>
      </trkpt>
      <trkpt lat="47.24194" lon="-2.26404">
        <ele>13</ele>
        <time>2014-05-18T11:22:07Z</time>
      </trkpt>
      <trkpt lat="47.24201" lon="-2.26408">
        <ele>14</ele>
        <time>2014-05-18T11:22:23Z</time>
      </trkpt>
      <trkpt lat="47.24205" lon="-2.26414">
        <ele>15</ele>
        <time>2014-05-18T11:22:32Z</time>
      </trkpt>
      <trkpt lat="47.2421" lon="-2.26421">
        <ele>18</ele>
        <time>2014-05-18T11:22:40Z</time>
      </trkpt>
      <trkpt lat="47.24214" lon="-2.26427">
        <ele>19</ele>
        <time>2014-05-18T11:22:45Z</time>
      </trkpt>
      <trkpt lat="47.24217" lon="-2.26433">
        <ele>19</ele>
        <time>2014-05-18T11:22:52Z</time>
      </trkpt>
      <trkpt lat="47.2422" lon="-2.2644">
        <ele>20</ele>
        <time>2014-05-18T11:22:57Z</time>
      </trkpt>
      <trkpt lat="47.24228" lon="-2.26454">
        <ele>21</ele>
        <time>2014-05-18T11:23:10Z</time>
      </trkpt>
      <trkpt lat="47.24233" lon="-2.26463">
        <ele>21</ele>
        <time>2014-05-18T11:23:17Z</time>
      </trkpt>
      <trkpt lat="47.24234" lon="-2.26469">
        <ele>21</ele>
        <time>2014-05-18T11:23:25Z</time>
      </trkpt>
      <trkpt lat="47.24233" lon="-2.26479">
        <ele>22</ele>
        <time>2014-05-18T11:23:32Z</time>
      </trkpt>
      <trkpt lat="47.24231" lon="-2.26487">
        <ele>22</ele>
        <time>2014-05-18T11:23:37Z</time>
      </trkpt>
      <trkpt lat="47.24229" lon="-2.26498">
        <ele>22</ele>
        <time>2014-05-18T11:23:44Z</time>
      </trkpt>
      <trkpt lat="47.24226" lon="-2.26514">
        <ele>25</ele>
        <time>2014-05-18T11:23:56Z</time>
      </trkpt>
      <trkpt lat="47.24224" lon="-2.26535">
        <ele>25</ele>
        <time>2014-05-18T11:24:08Z</time>
      </trkpt>
      <trkpt lat="47.24224" lon="-2.26547">
        <ele>26</ele>
        <time>2014-05-18T11:24:15Z</time>
      </trkpt>
      <trkpt lat="47.24223" lon="-2.26555">
        <ele>26</ele>
        <time>2014-05-18T11:24:20Z</time>
      </trkpt>
      <trkpt lat="47.24224" lon="-2.26563">
        <ele>26</ele>
        <time>2014-05-18T11:24:26Z</time>
      </trkpt>
      <trkpt lat="47.24224" lon="-2.26573">
        <ele>26</ele>
        <time>2014-05-18T11:24:31Z</time>
      </trkpt>
      <trkpt lat="47.24224" lon="-2.26582">
        <ele>27</ele>
        <time>2014-05-18T11:24:37Z</time>
      </trkpt>
      <trkpt lat="47.24223" lon="-2.26593">
        <ele>29</ele>
        <time>2014-05-18T11:24:45Z</time>
      </trkpt>
      <trkpt lat="47.24223" lon="-2.26603">
        <ele>29</ele>
        <time>2014-05-18T11:24:52Z</time>
      </trkpt>
      <trkpt lat="47.24223" lon="-2.26612">
        <ele>30</ele>
        <time>2014-05-18T11:24:57Z</time>
      </trkpt>
      <trkpt lat="47.24223" lon="-2.26622">
        <ele>30</ele>
        <time>2014-05-18T11:25:03Z</time>
      </trkpt>
      <trkpt lat="47.2422" lon="-2.26628">
        <ele>30</ele>
        <time>2014-05-18T11:25:10Z</time>
      </trkpt>
      <trkpt lat="47.24216" lon="-2.26628">
        <ele>30</ele>
        <time>2014-05-18T11:25:15Z</time>
      </trkpt>
      <trkpt lat="47.24206" lon="-2.26624">
        <ele>30</ele>
        <time>2014-05-18T11:25:27Z</time>
      </trkpt>
      <trkpt lat="47.24202" lon="-2.26621">
        <ele>30</ele>
        <time>2014-05-18T11:25:34Z</time>
      </trkpt>
      <trkpt lat="47.24196" lon="-2.26623">
        <ele>30</ele>
        <time>2014-05-18T11:25:45Z</time>
      </trkpt>
      <trkpt lat="47.2419" lon="-2.26619">
        <ele>29</ele>
        <time>2014-05-18T11:25:50Z</time>
      </trkpt>
      <trkpt lat="47.24185" lon="-2.26614">
        <ele>29</ele>
        <time>2014-05-18T11:25:56Z</time>
      </trkpt>
      <trkpt lat="47.24178" lon="-2.26613">
        <ele>29</ele>
        <time>2014-05-18T11:26:03Z</time>
      </trkpt>
      <trkpt lat="47.24171" lon="-2.26612">
        <ele>29</ele>
        <time>2014-05-18T11:26:08Z</time>
      </trkpt>
      <trkpt lat="47.24163" lon="-2.26611">
        <ele>25</ele>
        <time>2014-05-18T11:26:19Z</time>
      </trkpt>
      <trkpt lat="47.24156" lon="-2.26612">
        <ele>25</ele>
        <time>2014-05-18T11:26:25Z</time>
      </trkpt>
      <trkpt lat="47.24146" lon="-2.26621">
        <ele>24</ele>
        <time>2014-05-18T11:26:44Z</time>
      </trkpt>
      <trkpt lat="47.24145" lon="-2.26628">
        <ele>24</ele>
        <time>2014-05-18T11:26:52Z</time>
      </trkpt>
      <trkpt lat="47.24139" lon="-2.26636">
        <ele>24</ele>
        <time>2014-05-18T11:26:59Z</time>
      </trkpt>
      <trkpt lat="47.24134" lon="-2.26643">
        <ele>24</ele>
        <time>2014-05-18T11:27:04Z</time>
      </trkpt>
      <trkpt lat="47.24144" lon="-2.26636">
        <ele>25</ele>
        <time>2014-05-18T11:27:24Z</time>
      </trkpt>
      <trkpt lat="47.24149" lon="-2.26625">
        <ele>25</ele>
        <time>2014-05-18T11:27:29Z</time>
      </trkpt>
      <trkpt lat="47.24155" lon="-2.26619">
        <ele>25</ele>
        <time>2014-05-18T11:27:37Z</time>
      </trkpt>
      <trkpt lat="47.24161" lon="-2.26613">
        <ele>25</ele>
        <time>2014-05-18T11:27:43Z</time>
      </trkpt>
      <trkpt lat="47.24159" lon="-2.26602">
        <ele>25</ele>
        <time>2014-05-18T11:27:48Z</time>
      </trkpt>
      <trkpt lat="47.24162" lon="-2.2659">
        <ele>26</ele>
        <time>2014-05-18T11:28:00Z</time>
      </trkpt>
      <trkpt lat="47.24162" lon="-2.26581">
        <ele>25</ele>
        <time>2014-05-18T11:28:05Z</time>
      </trkpt>
      <trkpt lat="47.24153" lon="-2.26577">
        <ele>22</ele>
        <time>2014-05-18T11:28:16Z</time>
      </trkpt>
      <trkpt lat="47.24142" lon="-2.26574">
        <ele>19</ele>
        <time>2014-05-18T11:28:26Z</time>
      </trkpt>
      <trkpt lat="47.24137" lon="-2.26576">
        <ele>18</ele>
        <time>2014-05-18T11:28:31Z</time>
      </trkpt>
      <trkpt lat="47.24128" lon="-2.26575">
        <ele>17</ele>
        <time>2014-05-18T11:28:41Z</time>
      </trkpt>
      <trkpt lat="47.24124" lon="-2.26575">
        <ele>16</ele>
        <time>2014-05-18T11:28:48Z</time>
      </trkpt>
      <trkpt lat="47.24118" lon="-2.26576">
        <ele>16</ele>
        <time>2014-05-18T11:28:54Z</time>
      </trkpt>
      <trkpt lat="47.24112" lon="-2.26581">
        <ele>15</ele>
        <time>2014-05-18T11:29:04Z</time>
      </trkpt>
      <trkpt lat="47.24113" lon="-2.26591">
        <ele>20</ele>
        <time>2014-05-18T11:29:09Z</time>
      </trkpt>
      <trkpt lat="47.24113" lon="-2.26602">
        <ele>21</ele>
        <time>2014-05-18T11:29:25Z</time>
      </trkpt>
      <trkpt lat="47.24113" lon="-2.26615">
        <ele>22</ele>
        <time>2014-05-18T11:29:37Z</time>
      </trkpt>
      <trkpt lat="47.24111" lon="-2.26623">
        <ele>22</ele>
        <time>2014-05-18T11:29:42Z</time>
      </trkpt>
      <trkpt lat="47.24105" lon="-2.26632">
        <ele>22</ele>
        <time>2014-05-18T11:29:49Z</time>
      </trkpt>
      <trkpt lat="47.24103" lon="-2.26638">
        <ele>22</ele>
        <time>2014-05-18T11:29:55Z</time>
      </trkpt>
      <trkpt lat="47.24099" lon="-2.26643">
        <ele>22</ele>
        <time>2014-05-18T11:30:03Z</time>
      </trkpt>
      <trkpt lat="47.24092" lon="-2.26654">
        <ele>22</ele>
        <time>2014-05-18T11:30:08Z</time>
      </trkpt>
      <trkpt lat="47.24086" lon="-2.26664">
        <ele>22</ele>
        <time>2014-05-18T11:30:16Z</time>
      </trkpt>
      <trkpt lat="47.24082" lon="-2.26675">
        <ele>21</ele>
        <time>2014-05-18T11:30:23Z</time>
      </trkpt>
      <trkpt lat="47.24075" lon="-2.26683">
        <ele>20</ele>
        <time>2014-05-18T11:30:33Z</time>
      </trkpt>
      <trkpt lat="47.2407" lon="-2.26695">
        <ele>20</ele>
        <time>2014-05-18T11:30:38Z</time>
      </trkpt>
      <trkpt lat="47.24067" lon="-2.26701">
        <ele>20</ele>
        <time>2014-05-18T11:30:52Z</time>
      </trkpt>
      <trkpt lat="47.24061" lon="-2.26709">
        <ele>20</ele>
        <time>2014-05-18T11:31:03Z</time>
      </trkpt>
      <trkpt lat="47.24055" lon="-2.2672">
        <ele>20</ele>
        <time>2014-05-18T11:31:08Z</time>
      </trkpt>
      <trkpt lat="47.24049" lon="-2.26725">
        <ele>20</ele>
        <time>2014-05-18T11:31:13Z</time>
      </trkpt>
      <trkpt lat="47.24038" lon="-2.26728">
        <ele>19</ele>
        <time>2014-05-18T11:31:23Z</time>
      </trkpt>
      <trkpt lat="47.24033" lon="-2.26731">
        <ele>19</ele>
        <time>2014-05-18T11:31:29Z</time>
      </trkpt>
      <trkpt lat="47.24028" lon="-2.26735">
        <ele>19</ele>
        <time>2014-05-18T11:31:34Z</time>
      </trkpt>
      <trkpt lat="47.24022" lon="-2.26736">
        <ele>19</ele>
        <time>2014-05-18T11:31:41Z</time>
      </trkpt>
      <trkpt lat="47.24014" lon="-2.26738">
        <ele>18</ele>
        <time>2014-05-18T11:31:46Z</time>
      </trkpt>
      <trkpt lat="47.24003" lon="-2.26739">
        <ele>18</ele>
        <time>2014-05-18T11:31:56Z</time>
      </trkpt>
      <trkpt lat="47.23997" lon="-2.26737">
        <ele>16</ele>
        <time>2014-05-18T11:32:01Z</time>
      </trkpt>
      <trkpt lat="47.23983" lon="-2.26739">
        <ele>15</ele>
        <time>2014-05-18T11:32:12Z</time>
      </trkpt>
      <trkpt lat="47.23976" lon="-2.26738">
        <ele>14</ele>
        <time>2014-05-18T11:32:17Z</time>
      </trkpt>
      <trkpt lat="47.23965" lon="-2.26735">
        <ele>13</ele>
        <time>2014-05-18T11:32:27Z</time>
      </trkpt>
      <trkpt lat="47.23955" lon="-2.26737">
        <ele>12</ele>
        <time>2014-05-18T11:32:37Z</time>
      </trkpt>
      <trkpt lat="47.23947" lon="-2.26741">
        <ele>12</ele>
        <time>2014-05-18T11:32:42Z</time>
      </trkpt>
      <trkpt lat="47.23942" lon="-2.26746">
        <ele>12</ele>
        <time>2014-05-18T11:33:00Z</time>
      </trkpt>
      <trkpt lat="47.23932" lon="-2.26751">
        <ele>14</ele>
        <time>2014-05-18T11:33:24Z</time>
      </trkpt>
      <trkpt lat="47.23925" lon="-2.26753">
        <ele>13</ele>
        <time>2014-05-18T11:33:29Z</time>
      </trkpt>
      <trkpt lat="47.23917" lon="-2.26752">
        <ele>11</ele>
        <time>2014-05-18T11:33:36Z</time>
      </trkpt>
      <trkpt lat="47.23907" lon="-2.26749">
        <ele>10</ele>
        <time>2014-05-18T11:33:46Z</time>
      </trkpt>
      <trkpt lat="47.239" lon="-2.26747">
        <ele>9</ele>
        <time>2014-05-18T11:34:06Z</time>
      </trkpt>
      <trkpt lat="47.23893" lon="-2.26747">
        <ele>8</ele>
        <time>2014-05-18T11:34:17Z</time>
      </trkpt>
      <trkpt lat="47.23889" lon="-2.26753">
        <ele>8</ele>
        <time>2014-05-18T11:34:22Z</time>
      </trkpt>
      <trkpt lat="47.23887" lon="-2.26762">
        <ele>8</ele>
        <time>2014-05-18T11:34:30Z</time>
      </trkpt>
      <trkpt lat="47.2389" lon="-2.26771">
        <ele>8</ele>
        <time>2014-05-18T11:34:35Z</time>
      </trkpt>
      <trkpt lat="47.23891" lon="-2.26779">
        <ele>8</ele>
        <time>2014-05-18T11:34:41Z</time>
      </trkpt>
      <trkpt lat="47.23893" lon="-2.2679">
        <ele>9</ele>
        <time>2014-05-18T11:34:46Z</time>
      </trkpt>
      <trkpt lat="47.23899" lon="-2.26809">
        <ele>10</ele>
        <time>2014-05-18T11:34:57Z</time>
      </trkpt>
      <trkpt lat="47.23897" lon="-2.26822">
        <ele>10</ele>
        <time>2014-05-18T11:35:09Z</time>
      </trkpt>
      <trkpt lat="47.23895" lon="-2.26834">
        <ele>11</ele>
        <time>2014-05-18T11:35:16Z</time>
      </trkpt>
      <trkpt lat="47.23888" lon="-2.2684">
        <ele>11</ele>
        <time>2014-05-18T11:35:21Z</time>
      </trkpt>
      <trkpt lat="47.23877" lon="-2.26842">
        <ele>9</ele>
        <time>2014-05-18T11:35:32Z</time>
      </trkpt>
      <trkpt lat="47.23869" lon="-2.26855">
        <ele>9</ele>
        <time>2014-05-18T11:35:43Z</time>
      </trkpt>
      <trkpt lat="47.23875" lon="-2.2687">
        <ele>9</ele>
        <time>2014-05-18T11:35:53Z</time>
      </trkpt>
      <trkpt lat="47.23884" lon="-2.26878">
        <ele>10</ele>
        <time>2014-05-18T11:36:03Z</time>
      </trkpt>
      <trkpt lat="47.23891" lon="-2.26879">
        <ele>10</ele>
        <time>2014-05-18T11:36:10Z</time>
      </trkpt>
      <trkpt lat="47.239" lon="-2.26881">
        <ele>10</ele>
        <time>2014-05-18T11:36:18Z</time>
      </trkpt>
      <trkpt lat="47.23908" lon="-2.26883">
        <ele>11</ele>
        <time>2014-05-18T11:36:25Z</time>
      </trkpt>
      <trkpt lat="47.23914" lon="-2.26885">
        <ele>11</ele>
        <time>2014-05-18T11:36:31Z</time>
      </trkpt>
      <trkpt lat="47.2392" lon="-2.26887">
        <ele>15</ele>
        <time>2014-05-18T11:36:37Z</time>
      </trkpt>
      <trkpt lat="47.23927" lon="-2.26891">
        <ele>15</ele>
        <time>2014-05-18T11:36:44Z</time>
      </trkpt>
      <trkpt lat="47.23935" lon="-2.26896">
        <ele>15</ele>
        <time>2014-05-18T11:36:49Z</time>
      </trkpt>
      <trkpt lat="47.23944" lon="-2.26907">
        <ele>16</ele>
        <time>2014-05-18T11:36:59Z</time>
      </trkpt>
      <trkpt lat="47.23945" lon="-2.26915">
        <ele>15</ele>
        <time>2014-05-18T11:37:07Z</time>
      </trkpt>
      <trkpt lat="47.23948" lon="-2.2693">
        <ele>12</ele>
        <time>2014-05-18T11:37:12Z</time>
      </trkpt>
      <trkpt lat="47.23947" lon="-2.26941">
        <ele>12</ele>
        <time>2014-05-18T11:37:22Z</time>
      </trkpt>
      <trkpt lat="47.23953" lon="-2.26951">
        <ele>12</ele>
        <time>2014-05-18T11:37:29Z</time>
      </trkpt>
      <trkpt lat="47.23962" lon="-2.26954">
        <ele>12</ele>
        <time>2014-05-18T11:37:34Z</time>
      </trkpt>
      <trkpt lat="47.23971" lon="-2.26961">
        <ele>12</ele>
        <time>2014-05-18T11:37:45Z</time>
      </trkpt>
      <trkpt lat="47.23979" lon="-2.26962">
        <ele>12</ele>
        <time>2014-05-18T11:37:56Z</time>
      </trkpt>
      <trkpt lat="47.23988" lon="-2.26966">
        <ele>12</ele>
        <time>2014-05-18T11:38:06Z</time>
      </trkpt>
      <trkpt lat="47.23992" lon="-2.26968">
        <ele>12</ele>
        <time>2014-05-18T11:38:16Z</time>
      </trkpt>
      <trkpt lat="47.23998" lon="-2.26973">
        <ele>12</ele>
        <time>2014-05-18T11:38:23Z</time>
      </trkpt>
      <trkpt lat="47.24004" lon="-2.26978">
        <ele>15</ele>
        <time>2014-05-18T11:38:28Z</time>
      </trkpt>
      <trkpt lat="47.24011" lon="-2.26988">
        <ele>14</ele>
        <time>2014-05-18T11:38:35Z</time>
      </trkpt>
      <trkpt lat="47.24015" lon="-2.26998">
        <ele>14</ele>
        <time>2014-05-18T11:38:42Z</time>
      </trkpt>
      <trkpt lat="47.2402" lon="-2.27008">
        <ele>13</ele>
        <time>2014-05-18T11:38:56Z</time>
      </trkpt>
      <trkpt lat="47.24014" lon="-2.27016">
        <ele>12</ele>
        <time>2014-05-18T11:39:08Z</time>
      </trkpt>
      <trkpt lat="47.24007" lon="-2.2702">
        <ele>12</ele>
        <time>2014-05-18T11:39:22Z</time>
      </trkpt>
      <trkpt lat="47.24001" lon="-2.27025">
        <ele>12</ele>
        <time>2014-05-18T11:39:35Z</time>
      </trkpt>
      <trkpt lat="47.23997" lon="-2.27029">
        <ele>9</ele>
        <time>2014-05-18T11:39:41Z</time>
      </trkpt>
      <trkpt lat="47.23994" lon="-2.27036">
        <ele>9</ele>
        <time>2014-05-18T11:39:48Z</time>
      </trkpt>
      <trkpt lat="47.23991" lon="-2.27043">
        <ele>9</ele>
        <time>2014-05-18T11:39:53Z</time>
      </trkpt>
      <trkpt lat="47.23987" lon="-2.27052">
        <ele>9</ele>
        <time>2014-05-18T11:40:00Z</time>
      </trkpt>
      <trkpt lat="47.23984" lon="-2.27058">
        <ele>9</ele>
        <time>2014-05-18T11:40:06Z</time>
      </trkpt>
      <trkpt lat="47.23981" lon="-2.27064">
        <ele>9</ele>
        <time>2014-05-18T11:40:12Z</time>
      </trkpt>
      <trkpt lat="47.23977" lon="-2.27071">
        <ele>9</ele>
        <time>2014-05-18T11:40:17Z</time>
      </trkpt>
      <trkpt lat="47.23974" lon="-2.27077">
        <ele>9</ele>
        <time>2014-05-18T11:40:23Z</time>
      </trkpt>
      <trkpt lat="47.23972" lon="-2.27086">
        <ele>10</ele>
        <time>2014-05-18T11:40:29Z</time>
      </trkpt>
      <trkpt lat="47.23969" lon="-2.27093">
        <ele>10</ele>
        <time>2014-05-18T11:40:35Z</time>
      </trkpt>
      <trkpt lat="47.23968" lon="-2.271">
        <ele>10</ele>
        <time>2014-05-18T11:40:41Z</time>
      </trkpt>
      <trkpt lat="47.23966" lon="-2.27108">
        <ele>10</ele>
        <time>2014-05-18T11:40:46Z</time>
      </trkpt>
      <trkpt lat="47.23963" lon="-2.27116">
        <ele>10</ele>
        <time>2014-05-18T11:40:52Z</time>
      </trkpt>
      <trkpt lat="47.2396" lon="-2.27123">
        <ele>10</ele>
        <time>2014-05-18T11:40:58Z</time>
      </trkpt>
      <trkpt lat="47.23956" lon="-2.27129">
        <ele>11</ele>
        <time>2014-05-18T11:41:04Z</time>
      </trkpt>
      <trkpt lat="47.23952" lon="-2.27135">
        <ele>11</ele>
        <time>2014-05-18T11:41:10Z</time>
      </trkpt>
      <trkpt lat="47.23949" lon="-2.27141">
        <ele>11</ele>
        <time>2014-05-18T11:41:16Z</time>
      </trkpt>
      <trkpt lat="47.23943" lon="-2.2715">
        <ele>11</ele>
        <time>2014-05-18T11:41:23Z</time>
      </trkpt>
      <trkpt lat="47.23938" lon="-2.27155">
        <ele>11</ele>
        <time>2014-05-18T11:41:29Z</time>
      </trkpt>
      <trkpt lat="47.23934" lon="-2.27158">
        <ele>11</ele>
        <time>2014-05-18T11:41:34Z</time>
      </trkpt>
      <trkpt lat="47.23926" lon="-2.27169">
        <ele>12</ele>
        <time>2014-05-18T11:41:44Z</time>
      </trkpt>
      <trkpt lat="47.23929" lon="-2.27183">
        <ele>12</ele>
        <time>2014-05-18T11:41:50Z</time>
      </trkpt>
      <trkpt lat="47.23929" lon="-2.272">
        <ele>12</ele>
        <time>2014-05-18T11:42:01Z</time>
      </trkpt>
      <trkpt lat="47.2393" lon="-2.27213">
        <ele>12</ele>
        <time>2014-05-18T11:42:06Z</time>
      </trkpt>
      <trkpt lat="47.23932" lon="-2.27227">
        <ele>12</ele>
        <time>2014-05-18T11:42:16Z</time>
      </trkpt>
      <trkpt lat="47.23934" lon="-2.27239">
        <ele>12</ele>
        <time>2014-05-18T11:42:21Z</time>
      </trkpt>
      <trkpt lat="47.23935" lon="-2.27257">
        <ele>11</ele>
        <time>2014-05-18T11:42:31Z</time>
      </trkpt>
      <trkpt lat="47.23936" lon="-2.27272">
        <ele>11</ele>
        <time>2014-05-18T11:42:41Z</time>
      </trkpt>
      <trkpt lat="47.23938" lon="-2.2729">
        <ele>11</ele>
        <time>2014-05-18T11:42:52Z</time>
      </trkpt>
      <trkpt lat="47.23938" lon="-2.273">
        <ele>10</ele>
        <time>2014-05-18T11:42:57Z</time>
      </trkpt>
      <trkpt lat="47.23938" lon="-2.27315">
        <ele>10</ele>
        <time>2014-05-18T11:43:09Z</time>
      </trkpt>
      <trkpt lat="47.23939" lon="-2.27328">
        <ele>10</ele>
        <time>2014-05-18T11:43:16Z</time>
      </trkpt>
      <trkpt lat="47.2394" lon="-2.27338">
        <ele>9</ele>
        <time>2014-05-18T11:43:21Z</time>
      </trkpt>
      <trkpt lat="47.23939" lon="-2.2735">
        <ele>9</ele>
        <time>2014-05-18T11:43:28Z</time>
      </trkpt>
      <trkpt lat="47.23938" lon="-2.27359">
        <ele>9</ele>
        <time>2014-05-18T11:43:34Z</time>
      </trkpt>
      <trkpt lat="47.23937" lon="-2.2737">
        <ele>9</ele>
        <time>2014-05-18T11:43:39Z</time>
      </trkpt>
      <trkpt lat="47.23938" lon="-2.27381">
        <ele>9</ele>
        <time>2014-05-18T11:43:45Z</time>
      </trkpt>
      <trkpt lat="47.23938" lon="-2.27388">
        <ele>9</ele>
        <time>2014-05-18T11:43:50Z</time>
      </trkpt>
      <trkpt lat="47.23938" lon="-2.27399">
        <ele>9</ele>
        <time>2014-05-18T11:43:57Z</time>
      </trkpt>
      <trkpt lat="47.23939" lon="-2.2741">
        <ele>9</ele>
        <time>2014-05-18T11:44:03Z</time>
      </trkpt>
      <trkpt lat="47.23939" lon="-2.2742">
        <ele>8</ele>
        <time>2014-05-18T11:44:08Z</time>
      </trkpt>
      <trkpt lat="47.2394" lon="-2.27433">
        <ele>8</ele>
        <time>2014-05-18T11:44:19Z</time>
      </trkpt>
      <trkpt lat="47.23942" lon="-2.27444">
        <ele>8</ele>
        <time>2014-05-18T11:44:26Z</time>
      </trkpt>
      <trkpt lat="47.23941" lon="-2.27454">
        <ele>7</ele>
        <time>2014-05-18T11:44:31Z</time>
      </trkpt>
      <trkpt lat="47.2394" lon="-2.27463">
        <ele>7</ele>
        <time>2014-05-18T11:44:36Z</time>
      </trkpt>
      <trkpt lat="47.23944" lon="-2.27473">
        <ele>7</ele>
        <time>2014-05-18T11:44:43Z</time>
      </trkpt>
      <trkpt lat="47.23947" lon="-2.27479">
        <ele>7</ele>
        <time>2014-05-18T11:44:49Z</time>
      </trkpt>
      <trkpt lat="47.23951" lon="-2.27486">
        <ele>7</ele>
        <time>2014-05-18T11:44:55Z</time>
      </trkpt>
      <trkpt lat="47.23949" lon="-2.27498">
        <ele>7</ele>
        <time>2014-05-18T11:45:07Z</time>
      </trkpt>
      <trkpt lat="47.23945" lon="-2.27506">
        <ele>9</ele>
        <time>2014-05-18T11:45:12Z</time>
      </trkpt>
      <trkpt lat="47.23942" lon="-2.27511">
        <ele>9</ele>
        <time>2014-05-18T11:45:19Z</time>
      </trkpt>
      <trkpt lat="47.23939" lon="-2.27519">
        <ele>9</ele>
        <time>2014-05-18T11:45:26Z</time>
      </trkpt>
      <trkpt lat="47.23937" lon="-2.27528">
        <ele>10</ele>
        <time>2014-05-18T11:45:32Z</time>
      </trkpt>
      <trkpt lat="47.23932" lon="-2.27532">
        <ele>10</ele>
        <time>2014-05-18T11:45:39Z</time>
      </trkpt>
      <trkpt lat="47.23923" lon="-2.27537">
        <ele>10</ele>
        <time>2014-05-18T11:45:46Z</time>
      </trkpt>
      <trkpt lat="47.23917" lon="-2.27541">
        <ele>10</ele>
        <time>2014-05-18T11:45:53Z</time>
      </trkpt>
      <trkpt lat="47.23913" lon="-2.27544">
        <ele>7</ele>
        <time>2014-05-18T11:45:58Z</time>
      </trkpt>
      <trkpt lat="47.23907" lon="-2.27552">
        <ele>8</ele>
        <time>2014-05-18T11:46:05Z</time>
      </trkpt>
      <trkpt lat="47.23901" lon="-2.27559">
        <ele>9</ele>
        <time>2014-05-18T11:46:10Z</time>
      </trkpt>
      <trkpt lat="47.23898" lon="-2.27566">
        <ele>9</ele>
        <time>2014-05-18T11:46:22Z</time>
      </trkpt>
      <trkpt lat="47.23893" lon="-2.27573">
        <ele>9</ele>
        <time>2014-05-18T11:46:28Z</time>
      </trkpt>
      <trkpt lat="47.23888" lon="-2.27578">
        <ele>9</ele>
        <time>2014-05-18T11:46:34Z</time>
      </trkpt>
      <trkpt lat="47.23881" lon="-2.27577">
        <ele>8</ele>
        <time>2014-05-18T11:46:45Z</time>
      </trkpt>
      <trkpt lat="47.23876" lon="-2.27578">
        <ele>8</ele>
        <time>2014-05-18T11:46:51Z</time>
      </trkpt>
      <trkpt lat="47.23873" lon="-2.27587">
        <ele>12</ele>
        <time>2014-05-18T11:46:57Z</time>
      </trkpt>
      <trkpt lat="47.23868" lon="-2.27592">
        <ele>12</ele>
        <time>2014-05-18T11:47:03Z</time>
      </trkpt>
      <trkpt lat="47.23865" lon="-2.27597">
        <ele>12</ele>
        <time>2014-05-18T11:47:12Z</time>
      </trkpt>
      <trkpt lat="47.2386" lon="-2.27603">
        <ele>12</ele>
        <time>2014-05-18T11:47:26Z</time>
      </trkpt>
      <trkpt lat="47.23854" lon="-2.27605">
        <ele>11</ele>
        <time>2014-05-18T11:47:36Z</time>
      </trkpt>
      <trkpt lat="47.23861" lon="-2.27609">
        <ele>12</ele>
        <time>2014-05-18T11:47:46Z</time>
      </trkpt>
      <trkpt lat="47.23867" lon="-2.27609">
        <ele>13</ele>
        <time>2014-05-18T11:47:51Z</time>
      </trkpt>
      <trkpt lat="47.23871" lon="-2.27622">
        <ele>14</ele>
        <time>2014-05-18T11:48:03Z</time>
      </trkpt>
      <trkpt lat="47.23874" lon="-2.2763">
        <ele>14</ele>
        <time>2014-05-18T11:48:10Z</time>
      </trkpt>
      <trkpt lat="47.23868" lon="-2.27627">
        <ele>14</ele>
        <time>2014-05-18T11:48:30Z</time>
      </trkpt>
      <trkpt lat="47.2386" lon="-2.27633">
        <ele>14</ele>
        <time>2014-05-18T11:48:57Z</time>
      </trkpt>
      <trkpt lat="47.23855" lon="-2.27637">
        <ele>14</ele>
        <time>2014-05-18T11:49:03Z</time>
      </trkpt>
      <trkpt lat="47.23847" lon="-2.27641">
        <ele>15</ele>
        <time>2014-05-18T11:49:08Z</time>
      </trkpt>
      <trkpt lat="47.23841" lon="-2.27641">
        <ele>15</ele>
        <time>2014-05-18T11:49:13Z</time>
      </trkpt>
      <trkpt lat="47.23835" lon="-2.27644">
        <ele>15</ele>
        <time>2014-05-18T11:49:18Z</time>
      </trkpt>
      <trkpt lat="47.23827" lon="-2.27646">
        <ele>12</ele>
        <time>2014-05-18T11:49:23Z</time>
      </trkpt>
      <trkpt lat="47.23821" lon="-2.27643">
        <ele>12</ele>
        <time>2014-05-18T11:49:29Z</time>
      </trkpt>
      <trkpt lat="47.23817" lon="-2.27647">
        <ele>12</ele>
        <time>2014-05-18T11:49:34Z</time>
      </trkpt>
      <trkpt lat="47.2381" lon="-2.2765">
        <ele>11</ele>
        <time>2014-05-18T11:49:39Z</time>
      </trkpt>
      <trkpt lat="47.23805" lon="-2.27651">
        <ele>11</ele>
        <time>2014-05-18T11:49:45Z</time>
      </trkpt>
      <trkpt lat="47.23797" lon="-2.27654">
        <ele>10</ele>
        <time>2014-05-18T11:49:51Z</time>
      </trkpt>
      <trkpt lat="47.23793" lon="-2.2766">
        <ele>9</ele>
        <time>2014-05-18T11:49:56Z</time>
      </trkpt>
      <trkpt lat="47.2379" lon="-2.27667">
        <ele>10</ele>
        <time>2014-05-18T11:50:02Z</time>
      </trkpt>
      <trkpt lat="47.23787" lon="-2.27673">
        <ele>10</ele>
        <time>2014-05-18T11:50:14Z</time>
      </trkpt>
      <trkpt lat="47.23787" lon="-2.27681">
        <ele>10</ele>
        <time>2014-05-18T11:50:21Z</time>
      </trkpt>
      <trkpt lat="47.23786" lon="-2.27692">
        <ele>10</ele>
        <time>2014-05-18T11:50:30Z</time>
      </trkpt>
      <trkpt lat="47.2378" lon="-2.27706">
        <ele>10</ele>
        <time>2014-05-18T11:50:41Z</time>
      </trkpt>
      <trkpt lat="47.23777" lon="-2.27718">
        <ele>9</ele>
        <time>2014-05-18T11:50:51Z</time>
      </trkpt>
      <trkpt lat="47.23777" lon="-2.27726">
        <ele>9</ele>
        <time>2014-05-18T11:50:56Z</time>
      </trkpt>
      <trkpt lat="47.23778" lon="-2.27734">
        <ele>9</ele>
        <time>2014-05-18T11:51:03Z</time>
      </trkpt>
      <trkpt lat="47.23779" lon="-2.27742">
        <ele>9</ele>
        <time>2014-05-18T11:51:08Z</time>
      </trkpt>
      <trkpt lat="47.23781" lon="-2.27748">
        <ele>9</ele>
        <time>2014-05-18T11:51:16Z</time>
      </trkpt>
      <trkpt lat="47.23789" lon="-2.27746">
        <ele>10</ele>
        <time>2014-05-18T11:51:34Z</time>
      </trkpt>
      <trkpt lat="47.23782" lon="-2.27747">
        <ele>10</ele>
        <time>2014-05-18T11:52:26Z</time>
      </trkpt>
      <trkpt lat="47.23783" lon="-2.2776">
        <ele>8</ele>
        <time>2014-05-18T11:52:38Z</time>
      </trkpt>
      <trkpt lat="47.23778" lon="-2.27773">
        <ele>8</ele>
        <time>2014-05-18T11:52:50Z</time>
      </trkpt>
      <trkpt lat="47.2378" lon="-2.27781">
        <ele>8</ele>
        <time>2014-05-18T11:52:55Z</time>
      </trkpt>
      <trkpt lat="47.23785" lon="-2.27788">
        <ele>8</ele>
        <time>2014-05-18T11:53:00Z</time>
      </trkpt>
      <trkpt lat="47.23785" lon="-2.27801">
        <ele>8</ele>
        <time>2014-05-18T11:53:16Z</time>
      </trkpt>
      <trkpt lat="47.23785" lon="-2.27812">
        <ele>7</ele>
        <time>2014-05-18T11:53:27Z</time>
      </trkpt>
      <trkpt lat="47.23789" lon="-2.27806">
        <ele>8</ele>
        <time>2014-05-18T11:53:57Z</time>
      </trkpt>
      <trkpt lat="47.23794" lon="-2.27803">
        <ele>8</ele>
        <time>2014-05-18T11:54:02Z</time>
      </trkpt>
      <trkpt lat="47.238" lon="-2.27804">
        <ele>8</ele>
        <time>2014-05-18T11:54:09Z</time>
      </trkpt>
      <trkpt lat="47.23806" lon="-2.27805">
        <ele>8</ele>
        <time>2014-05-18T11:54:23Z</time>
      </trkpt>
      <trkpt lat="47.2381" lon="-2.27812">
        <ele>8</ele>
        <time>2014-05-18T11:54:29Z</time>
      </trkpt>
      <trkpt lat="47.23806" lon="-2.27817">
        <ele>8</ele>
        <time>2014-05-18T11:54:36Z</time>
      </trkpt>
      <trkpt lat="47.23799" lon="-2.27823">
        <ele>8</ele>
        <time>2014-05-18T11:54:45Z</time>
      </trkpt>
      <trkpt lat="47.23795" lon="-2.27831">
        <ele>8</ele>
        <time>2014-05-18T11:54:50Z</time>
      </trkpt>
      <trkpt lat="47.23791" lon="-2.27845">
        <ele>6</ele>
        <time>2014-05-18T11:54:55Z</time>
      </trkpt>
      <trkpt lat="47.23791" lon="-2.27855">
        <ele>6</ele>
        <time>2014-05-18T11:55:00Z</time>
      </trkpt>
      <trkpt lat="47.23793" lon="-2.27871">
        <ele>6</ele>
        <time>2014-05-18T11:55:12Z</time>
      </trkpt>
      <trkpt lat="47.23796" lon="-2.27887">
        <ele>6</ele>
        <time>2014-05-18T11:55:17Z</time>
      </trkpt>
      <trkpt lat="47.23797" lon="-2.27896">
        <ele>5</ele>
        <time>2014-05-18T11:55:23Z</time>
      </trkpt>
      <trkpt lat="47.23797" lon="-2.27904">
        <ele>5</ele>
        <time>2014-05-18T11:55:29Z</time>
      </trkpt>
      <trkpt lat="47.238" lon="-2.2792">
        <ele>5</ele>
        <time>2014-05-18T11:55:34Z</time>
      </trkpt>
      <trkpt lat="47.238" lon="-2.2793">
        <ele>5</ele>
        <time>2014-05-18T11:55:41Z</time>
      </trkpt>
      <trkpt lat="47.23799" lon="-2.27938">
        <ele>5</ele>
        <time>2014-05-18T11:55:46Z</time>
      </trkpt>
      <trkpt lat="47.23797" lon="-2.2795">
        <ele>5</ele>
        <time>2014-05-18T11:55:53Z</time>
      </trkpt>
      <trkpt lat="47.23797" lon="-2.27962">
        <ele>5</ele>
        <time>2014-05-18T11:55:58Z</time>
      </trkpt>
      <trkpt lat="47.23798" lon="-2.27973">
        <ele>5</ele>
        <time>2014-05-18T11:56:05Z</time>
      </trkpt>
      <trkpt lat="47.238" lon="-2.27982">
        <ele>5</ele>
        <time>2014-05-18T11:56:11Z</time>
      </trkpt>
      <trkpt lat="47.23801" lon="-2.27994">
        <ele>5</ele>
        <time>2014-05-18T11:56:18Z</time>
      </trkpt>
      <trkpt lat="47.23803" lon="-2.28005">
        <ele>6</ele>
        <time>2014-05-18T11:56:25Z</time>
      </trkpt>
      <trkpt lat="47.23801" lon="-2.28012">
        <ele>6</ele>
        <time>2014-05-18T11:57:28Z</time>
      </trkpt>
      <trkpt lat="47.23802" lon="-2.28019">
        <ele>6</ele>
        <time>2014-05-18T11:57:34Z</time>
      </trkpt>
      <trkpt lat="47.23802" lon="-2.28029">
        <ele>6</ele>
        <time>2014-05-18T11:57:45Z</time>
      </trkpt>
      <trkpt lat="47.23804" lon="-2.28037">
        <ele>6</ele>
        <time>2014-05-18T11:57:54Z</time>
      </trkpt>
      <trkpt lat="47.23807" lon="-2.28048">
        <ele>7</ele>
        <time>2014-05-18T11:58:02Z</time>
      </trkpt>
      <trkpt lat="47.23809" lon="-2.28039">
        <ele>6</ele>
        <time>2014-05-18T11:58:37Z</time>
      </trkpt>
      <trkpt lat="47.23808" lon="-2.28032">
        <ele>6</ele>
        <time>2014-05-18T11:58:42Z</time>
      </trkpt>
      <trkpt lat="47.23809" lon="-2.28023">
        <ele>6</ele>
        <time>2014-05-18T11:58:51Z</time>
      </trkpt>
      <trkpt lat="47.23802" lon="-2.2802">
        <ele>6</ele>
        <time>2014-05-18T11:59:25Z</time>
      </trkpt>
      <trkpt lat="47.23802" lon="-2.28028">
        <ele>6</ele>
        <time>2014-05-18T12:00:32Z</time>
      </trkpt>
      <trkpt lat="47.23807" lon="-2.28032">
        <ele>6</ele>
        <time>2014-05-18T12:01:05Z</time>
      </trkpt>
      <trkpt lat="47.23813" lon="-2.28043">
        <ele>7</ele>
        <time>2014-05-18T12:01:16Z</time>
      </trkpt>
      <trkpt lat="47.23816" lon="-2.28057">
        <ele>7</ele>
        <time>2014-05-18T12:01:28Z</time>
      </trkpt>
      <trkpt lat="47.23817" lon="-2.28065">
        <ele>7</ele>
        <time>2014-05-18T12:01:33Z</time>
      </trkpt>
      <trkpt lat="47.2382" lon="-2.28073">
        <ele>7</ele>
        <time>2014-05-18T12:01:38Z</time>
      </trkpt>
      <trkpt lat="47.2382" lon="-2.28081">
        <ele>7</ele>
        <time>2014-05-18T12:01:43Z</time>
      </trkpt>
      <trkpt lat="47.23821" lon="-2.28089">
        <ele>8</ele>
        <time>2014-05-18T12:01:48Z</time>
      </trkpt>
      <trkpt lat="47.23821" lon="-2.28097">
        <ele>8</ele>
        <time>2014-05-18T12:01:54Z</time>
      </trkpt>
      <trkpt lat="47.23822" lon="-2.28104">
        <ele>8</ele>
        <time>2014-05-18T12:01:59Z</time>
      </trkpt>
      <trkpt lat="47.23822" lon="-2.28118">
        <ele>9</ele>
        <time>2014-05-18T12:02:34Z</time>
      </trkpt>
      <trkpt lat="47.23821" lon="-2.28135">
        <ele>9</ele>
        <time>2014-05-18T12:02:50Z</time>
      </trkpt>
      <trkpt lat="47.2382" lon="-2.28144">
        <ele>10</ele>
        <time>2014-05-18T12:03:19Z</time>
      </trkpt>
      <trkpt lat="47.2382" lon="-2.28152">
        <ele>11</ele>
        <time>2014-05-18T12:03:24Z</time>
      </trkpt>
      <trkpt lat="47.23819" lon="-2.2816">
        <ele>11</ele>
        <time>2014-05-18T12:03:29Z</time>
      </trkpt>
      <trkpt lat="47.23819" lon="-2.28169">
        <ele>11</ele>
        <time>2014-05-18T12:03:34Z</time>
      </trkpt>
      <trkpt lat="47.23819" lon="-2.28178">
        <ele>11</ele>
        <time>2014-05-18T12:03:39Z</time>
      </trkpt>
      <trkpt lat="47.23819" lon="-2.28185">
        <ele>11</ele>
        <time>2014-05-18T12:03:44Z</time>
      </trkpt>
      <trkpt lat="47.23818" lon="-2.28193">
        <ele>10</ele>
        <time>2014-05-18T12:03:49Z</time>
      </trkpt>
      <trkpt lat="47.23818" lon="-2.28201">
        <ele>10</ele>
        <time>2014-05-18T12:03:54Z</time>
      </trkpt>
      <trkpt lat="47.23817" lon="-2.2821">
        <ele>10</ele>
        <time>2014-05-18T12:03:59Z</time>
      </trkpt>
      <trkpt lat="47.23818" lon="-2.28218">
        <ele>11</ele>
        <time>2014-05-18T12:04:04Z</time>
      </trkpt>
      <trkpt lat="47.23819" lon="-2.28227">
        <ele>11</ele>
        <time>2014-05-18T12:04:09Z</time>
      </trkpt>
      <trkpt lat="47.23822" lon="-2.28237">
        <ele>12</ele>
        <time>2014-05-18T12:04:14Z</time>
      </trkpt>
      <trkpt lat="47.23822" lon="-2.28246">
        <ele>14</ele>
        <time>2014-05-18T12:04:19Z</time>
      </trkpt>
      <trkpt lat="47.23822" lon="-2.28255">
        <ele>15</ele>
        <time>2014-05-18T12:04:24Z</time>
      </trkpt>
      <trkpt lat="47.23822" lon="-2.28262">
        <ele>14</ele>
        <time>2014-05-18T12:04:29Z</time>
      </trkpt>
      <trkpt lat="47.23822" lon="-2.2827">
        <ele>14</ele>
        <time>2014-05-18T12:04:34Z</time>
      </trkpt>
      <trkpt lat="47.2382" lon="-2.28278">
        <ele>13</ele>
        <time>2014-05-18T12:04:39Z</time>
      </trkpt>
      <trkpt lat="47.23816" lon="-2.28283">
        <ele>13</ele>
        <time>2014-05-18T12:04:44Z</time>
      </trkpt>
      <trkpt lat="47.2381" lon="-2.28287">
        <ele>13</ele>
        <time>2014-05-18T12:04:49Z</time>
      </trkpt>
      <trkpt lat="47.23807" lon="-2.28293">
        <ele>13</ele>
        <time>2014-05-18T12:04:55Z</time>
      </trkpt>
      <trkpt lat="47.23805" lon="-2.28303">
        <ele>13</ele>
        <time>2014-05-18T12:05:01Z</time>
      </trkpt>
      <trkpt lat="47.23803" lon="-2.28317">
        <ele>13</ele>
        <time>2014-05-18T12:05:08Z</time>
      </trkpt>
      <trkpt lat="47.23802" lon="-2.28323">
        <ele>13</ele>
        <time>2014-05-18T12:05:15Z</time>
      </trkpt>
      <trkpt lat="47.23802" lon="-2.28334">
        <ele>15</ele>
        <time>2014-05-18T12:05:29Z</time>
      </trkpt>
      <trkpt lat="47.23804" lon="-2.28344">
        <ele>15</ele>
        <time>2014-05-18T12:05:36Z</time>
      </trkpt>
      <trkpt lat="47.23801" lon="-2.28354">
        <ele>15</ele>
        <time>2014-05-18T12:05:59Z</time>
      </trkpt>
      <trkpt lat="47.23797" lon="-2.28353">
        <ele>15</ele>
        <time>2014-05-18T12:06:04Z</time>
      </trkpt>
      <trkpt lat="47.23791" lon="-2.28351">
        <ele>14</ele>
        <time>2014-05-18T12:06:09Z</time>
      </trkpt>
      <trkpt lat="47.23786" lon="-2.28348">
        <ele>13</ele>
        <time>2014-05-18T12:06:15Z</time>
      </trkpt>
      <trkpt lat="47.23781" lon="-2.28355">
        <ele>13</ele>
        <time>2014-05-18T12:06:20Z</time>
      </trkpt>
      <trkpt lat="47.23774" lon="-2.28369">
        <ele>13</ele>
        <time>2014-05-18T12:06:30Z</time>
      </trkpt>
      <trkpt lat="47.23769" lon="-2.28372">
        <ele>12</ele>
        <time>2014-05-18T12:06:35Z</time>
      </trkpt>
      <trkpt lat="47.23767" lon="-2.28381">
        <ele>12</ele>
        <time>2014-05-18T12:06:40Z</time>
      </trkpt>
      <trkpt lat="47.23766" lon="-2.28389">
        <ele>12</ele>
        <time>2014-05-18T12:06:46Z</time>
      </trkpt>
      <trkpt lat="47.23769" lon="-2.28398">
        <ele>12</ele>
        <time>2014-05-18T12:06:51Z</time>
      </trkpt>
      <trkpt lat="47.23771" lon="-2.28405">
        <ele>12</ele>
        <time>2014-05-18T12:06:56Z</time>
      </trkpt>
      <trkpt lat="47.23772" lon="-2.28412">
        <ele>12</ele>
        <time>2014-05-18T12:07:01Z</time>
      </trkpt>
      <trkpt lat="47.23771" lon="-2.28422">
        <ele>12</ele>
        <time>2014-05-18T12:07:08Z</time>
      </trkpt>
      <trkpt lat="47.2377" lon="-2.28433">
        <ele>13</ele>
        <time>2014-05-18T12:07:13Z</time>
      </trkpt>
      <trkpt lat="47.23766" lon="-2.28444">
        <ele>13</ele>
        <time>2014-05-18T12:07:20Z</time>
      </trkpt>
      <trkpt lat="47.23763" lon="-2.28449">
        <ele>13</ele>
        <time>2014-05-18T12:07:26Z</time>
      </trkpt>
      <trkpt lat="47.2376" lon="-2.28456">
        <ele>13</ele>
        <time>2014-05-18T12:07:33Z</time>
      </trkpt>
      <trkpt lat="47.23759" lon="-2.28466">
        <ele>13</ele>
        <time>2014-05-18T12:07:38Z</time>
      </trkpt>
      <trkpt lat="47.23757" lon="-2.28475">
        <ele>12</ele>
        <time>2014-05-18T12:07:44Z</time>
      </trkpt>
      <trkpt lat="47.23762" lon="-2.28483">
        <ele>12</ele>
        <time>2014-05-18T12:07:49Z</time>
      </trkpt>
      <trkpt lat="47.23767" lon="-2.28489">
        <ele>12</ele>
        <time>2014-05-18T12:07:56Z</time>
      </trkpt>
      <trkpt lat="47.23772" lon="-2.28496">
        <ele>12</ele>
        <time>2014-05-18T12:08:01Z</time>
      </trkpt>
      <trkpt lat="47.23775" lon="-2.28504">
        <ele>13</ele>
        <time>2014-05-18T12:08:06Z</time>
      </trkpt>
      <trkpt lat="47.23778" lon="-2.28514">
        <ele>14</ele>
        <time>2014-05-18T12:08:11Z</time>
      </trkpt>
      <trkpt lat="47.23781" lon="-2.28522">
        <ele>15</ele>
        <time>2014-05-18T12:08:17Z</time>
      </trkpt>
      <trkpt lat="47.23783" lon="-2.28529">
        <ele>15</ele>
        <time>2014-05-18T12:08:23Z</time>
      </trkpt>
      <trkpt lat="47.23783" lon="-2.28543">
        <ele>15</ele>
        <time>2014-05-18T12:08:28Z</time>
      </trkpt>
      <trkpt lat="47.23782" lon="-2.28551">
        <ele>15</ele>
        <time>2014-05-18T12:08:34Z</time>
      </trkpt>
      <trkpt lat="47.23782" lon="-2.28561">
        <ele>15</ele>
        <time>2014-05-18T12:08:39Z</time>
      </trkpt>
      <trkpt lat="47.23783" lon="-2.28568">
        <ele>15</ele>
        <time>2014-05-18T12:08:46Z</time>
      </trkpt>
      <trkpt lat="47.23785" lon="-2.28576">
        <ele>15</ele>
        <time>2014-05-18T12:08:52Z</time>
      </trkpt>
      <trkpt lat="47.23784" lon="-2.2859">
        <ele>16</ele>
        <time>2014-05-18T12:08:59Z</time>
      </trkpt>
      <trkpt lat="47.23787" lon="-2.28604">
        <ele>17</ele>
        <time>2014-05-18T12:09:04Z</time>
      </trkpt>
      <trkpt lat="47.2379" lon="-2.28609">
        <ele>17</ele>
        <time>2014-05-18T12:09:09Z</time>
      </trkpt>
      <trkpt lat="47.2379" lon="-2.28618">
        <ele>17</ele>
        <time>2014-05-18T12:09:14Z</time>
      </trkpt>
      <trkpt lat="47.2379" lon="-2.28626">
        <ele>17</ele>
        <time>2014-05-18T12:09:19Z</time>
      </trkpt>
      <trkpt lat="47.23783" lon="-2.28638">
        <ele>17</ele>
        <time>2014-05-18T12:09:30Z</time>
      </trkpt>
      <trkpt lat="47.23781" lon="-2.28645">
        <ele>17</ele>
        <time>2014-05-18T12:09:35Z</time>
      </trkpt>
      <trkpt lat="47.23779" lon="-2.28651">
        <ele>17</ele>
        <time>2014-05-18T12:09:41Z</time>
      </trkpt>
      <trkpt lat="47.23777" lon="-2.28658">
        <ele>16</ele>
        <time>2014-05-18T12:09:46Z</time>
      </trkpt>
      <trkpt lat="47.23773" lon="-2.28668">
        <ele>17</ele>
        <time>2014-05-18T12:09:53Z</time>
      </trkpt>
      <trkpt lat="47.2377" lon="-2.28681">
        <ele>17</ele>
        <time>2014-05-18T12:09:58Z</time>
      </trkpt>
      <trkpt lat="47.23766" lon="-2.28687">
        <ele>17</ele>
        <time>2014-05-18T12:10:03Z</time>
      </trkpt>
      <trkpt lat="47.23763" lon="-2.28693">
        <ele>17</ele>
        <time>2014-05-18T12:10:08Z</time>
      </trkpt>
      <trkpt lat="47.2376" lon="-2.28702">
        <ele>17</ele>
        <time>2014-05-18T12:10:13Z</time>
      </trkpt>
      <trkpt lat="47.2376" lon="-2.28713">
        <ele>17</ele>
        <time>2014-05-18T12:10:20Z</time>
      </trkpt>
      <trkpt lat="47.23761" lon="-2.28726">
        <ele>17</ele>
        <time>2014-05-18T12:10:27Z</time>
      </trkpt>
      <trkpt lat="47.23761" lon="-2.28741">
        <ele>17</ele>
        <time>2014-05-18T12:10:32Z</time>
      </trkpt>
      <trkpt lat="47.23764" lon="-2.28753">
        <ele>17</ele>
        <time>2014-05-18T12:10:40Z</time>
      </trkpt>
      <trkpt lat="47.23765" lon="-2.28762">
        <ele>17</ele>
        <time>2014-05-18T12:10:45Z</time>
      </trkpt>
      <trkpt lat="47.23765" lon="-2.28773">
        <ele>17</ele>
        <time>2014-05-18T12:10:51Z</time>
      </trkpt>
      <trkpt lat="47.23765" lon="-2.28781">
        <ele>17</ele>
        <time>2014-05-18T12:10:56Z</time>
      </trkpt>
      <trkpt lat="47.23765" lon="-2.28791">
        <ele>17</ele>
        <time>2014-05-18T12:11:01Z</time>
      </trkpt>
      <trkpt lat="47.23768" lon="-2.28802">
        <ele>17</ele>
        <time>2014-05-18T12:11:06Z</time>
      </trkpt>
      <trkpt lat="47.23769" lon="-2.28815">
        <ele>16</ele>
        <time>2014-05-18T12:11:12Z</time>
      </trkpt>
      <trkpt lat="47.23768" lon="-2.28822">
        <ele>16</ele>
        <time>2014-05-18T12:11:17Z</time>
      </trkpt>
      <trkpt lat="47.23769" lon="-2.28833">
        <ele>15</ele>
        <time>2014-05-18T12:11:22Z</time>
      </trkpt>
      <trkpt lat="47.23771" lon="-2.28851">
        <ele>16</ele>
        <time>2014-05-18T12:11:32Z</time>
      </trkpt>
      <trkpt lat="47.23773" lon="-2.28861">
        <ele>17</ele>
        <time>2014-05-18T12:11:39Z</time>
      </trkpt>
      <trkpt lat="47.23771" lon="-2.28869">
        <ele>17</ele>
        <time>2014-05-18T12:11:45Z</time>
      </trkpt>
      <trkpt lat="47.23772" lon="-2.28879">
        <ele>18</ele>
        <time>2014-05-18T12:11:51Z</time>
      </trkpt>
      <trkpt lat="47.23774" lon="-2.28888">
        <ele>18</ele>
        <time>2014-05-18T12:11:56Z</time>
      </trkpt>
      <trkpt lat="47.23774" lon="-2.289">
        <ele>18</ele>
        <time>2014-05-18T12:12:03Z</time>
      </trkpt>
      <trkpt lat="47.23778" lon="-2.28909">
        <ele>18</ele>
        <time>2014-05-18T12:12:10Z</time>
      </trkpt>
      <trkpt lat="47.23784" lon="-2.28912">
        <ele>19</ele>
        <time>2014-05-18T12:12:15Z</time>
      </trkpt>
      <trkpt lat="47.2379" lon="-2.28914">
        <ele>19</ele>
        <time>2014-05-18T12:12:22Z</time>
      </trkpt>
      <trkpt lat="47.23797" lon="-2.28914">
        <ele>20</ele>
        <time>2014-05-18T12:12:28Z</time>
      </trkpt>
      <trkpt lat="47.23803" lon="-2.28915">
        <ele>21</ele>
        <time>2014-05-18T12:12:35Z</time>
      </trkpt>
      <trkpt lat="47.23813" lon="-2.28921">
        <ele>23</ele>
        <time>2014-05-18T12:12:45Z</time>
      </trkpt>
      <trkpt lat="47.23815" lon="-2.28938">
        <ele>23</ele>
        <time>2014-05-18T12:12:57Z</time>
      </trkpt>
      <trkpt lat="47.23814" lon="-2.28949">
        <ele>23</ele>
        <time>2014-05-18T12:13:02Z</time>
      </trkpt>
      <trkpt lat="47.23811" lon="-2.28955">
        <ele>23</ele>
        <time>2014-05-18T12:13:07Z</time>
      </trkpt>
      <trkpt lat="47.23806" lon="-2.28961">
        <ele>23</ele>
        <time>2014-05-18T12:13:13Z</time>
      </trkpt>
      <trkpt lat="47.23805" lon="-2.28973">
        <ele>23</ele>
        <time>2014-05-18T12:13:18Z</time>
      </trkpt>
      <trkpt lat="47.23803" lon="-2.28979">
        <ele>23</ele>
        <time>2014-05-18T12:13:23Z</time>
      </trkpt>
      <trkpt lat="47.238" lon="-2.28989">
        <ele>23</ele>
        <time>2014-05-18T12:13:32Z</time>
      </trkpt>
      <trkpt lat="47.238" lon="-2.28997">
        <ele>23</ele>
        <time>2014-05-18T12:13:38Z</time>
      </trkpt>
      <trkpt lat="47.238" lon="-2.29007">
        <ele>26</ele>
        <time>2014-05-18T12:13:44Z</time>
      </trkpt>
      <trkpt lat="47.238" lon="-2.29019">
        <ele>26</ele>
        <time>2014-05-18T12:13:50Z</time>
      </trkpt>
      <trkpt lat="47.23799" lon="-2.29027">
        <ele>26</ele>
        <time>2014-05-18T12:13:56Z</time>
      </trkpt>
      <trkpt lat="47.238" lon="-2.29039">
        <ele>26</ele>
        <time>2014-05-18T12:14:03Z</time>
      </trkpt>
      <trkpt lat="47.23799" lon="-2.2905">
        <ele>26</ele>
        <time>2014-05-18T12:14:08Z</time>
      </trkpt>
      <trkpt lat="47.23799" lon="-2.29058">
        <ele>27</ele>
        <time>2014-05-18T12:14:13Z</time>
      </trkpt>
      <trkpt lat="47.23797" lon="-2.29066">
        <ele>27</ele>
        <time>2014-05-18T12:14:18Z</time>
      </trkpt>
      <trkpt lat="47.23795" lon="-2.29075">
        <ele>27</ele>
        <time>2014-05-18T12:14:23Z</time>
      </trkpt>
      <trkpt lat="47.23793" lon="-2.29083">
        <ele>27</ele>
        <time>2014-05-18T12:14:28Z</time>
      </trkpt>
      <trkpt lat="47.2379" lon="-2.29092">
        <ele>29</ele>
        <time>2014-05-18T12:14:33Z</time>
      </trkpt>
      <trkpt lat="47.2379" lon="-2.29101">
        <ele>29</ele>
        <time>2014-05-18T12:14:38Z</time>
      </trkpt>
      <trkpt lat="47.2379" lon="-2.29108">
        <ele>29</ele>
        <time>2014-05-18T12:14:43Z</time>
      </trkpt>
      <trkpt lat="47.23788" lon="-2.29116">
        <ele>29</ele>
        <time>2014-05-18T12:14:48Z</time>
      </trkpt>
      <trkpt lat="47.23785" lon="-2.29124">
        <ele>29</ele>
        <time>2014-05-18T12:14:53Z</time>
      </trkpt>
      <trkpt lat="47.23781" lon="-2.29129">
        <ele>29</ele>
        <time>2014-05-18T12:14:58Z</time>
      </trkpt>
      <trkpt lat="47.23776" lon="-2.29134">
        <ele>29</ele>
        <time>2014-05-18T12:15:03Z</time>
      </trkpt>
      <trkpt lat="47.23772" lon="-2.29139">
        <ele>29</ele>
        <time>2014-05-18T12:15:08Z</time>
      </trkpt>
      <trkpt lat="47.23767" lon="-2.29144">
        <ele>29</ele>
        <time>2014-05-18T12:15:14Z</time>
      </trkpt>
      <trkpt lat="47.23763" lon="-2.29148">
        <ele>30</ele>
        <time>2014-05-18T12:15:20Z</time>
      </trkpt>
      <trkpt lat="47.23757" lon="-2.2915">
        <ele>30</ele>
        <time>2014-05-18T12:15:25Z</time>
      </trkpt>
      <trkpt lat="47.23752" lon="-2.29154">
        <ele>30</ele>
        <time>2014-05-18T12:15:30Z</time>
      </trkpt>
      <trkpt lat="47.23746" lon="-2.29156">
        <ele>27</ele>
        <time>2014-05-18T12:15:36Z</time>
      </trkpt>
      <trkpt lat="47.23737" lon="-2.29158">
        <ele>27</ele>
        <time>2014-05-18T12:15:41Z</time>
      </trkpt>
      <trkpt lat="47.23731" lon="-2.29161">
        <ele>26</ele>
        <time>2014-05-18T12:15:46Z</time>
      </trkpt>
      <trkpt lat="47.23724" lon="-2.29166">
        <ele>25</ele>
        <time>2014-05-18T12:15:51Z</time>
      </trkpt>
      <trkpt lat="47.23719" lon="-2.29169">
        <ele>27</ele>
        <time>2014-05-18T12:15:56Z</time>
      </trkpt>
      <trkpt lat="47.23709" lon="-2.29176">
        <ele>27</ele>
        <time>2014-05-18T12:16:01Z</time>
      </trkpt>
      <trkpt lat="47.23697" lon="-2.29182">
        <ele>26</ele>
        <time>2014-05-18T12:16:13Z</time>
      </trkpt>
      <trkpt lat="47.2369" lon="-2.29185">
        <ele>26</ele>
        <time>2014-05-18T12:16:19Z</time>
      </trkpt>
      <trkpt lat="47.23677" lon="-2.29189">
        <ele>26</ele>
        <time>2014-05-18T12:16:30Z</time>
      </trkpt>
      <trkpt lat="47.23672" lon="-2.29191">
        <ele>25</ele>
        <time>2014-05-18T12:16:35Z</time>
      </trkpt>
      <trkpt lat="47.23665" lon="-2.29195">
        <ele>22</ele>
        <time>2014-05-18T12:16:41Z</time>
      </trkpt>
      <trkpt lat="47.23657" lon="-2.29195">
        <ele>21</ele>
        <time>2014-05-18T12:16:46Z</time>
      </trkpt>
      <trkpt lat="47.23651" lon="-2.29193">
        <ele>21</ele>
        <time>2014-05-18T12:16:52Z</time>
      </trkpt>
      <trkpt lat="47.23642" lon="-2.29196">
        <ele>21</ele>
        <time>2014-05-18T12:16:57Z</time>
      </trkpt>
      <trkpt lat="47.23638" lon="-2.292">
        <ele>21</ele>
        <time>2014-05-18T12:17:03Z</time>
      </trkpt>
      <trkpt lat="47.2363" lon="-2.292">
        <ele>20</ele>
        <time>2014-05-18T12:17:08Z</time>
      </trkpt>
      <trkpt lat="47.23625" lon="-2.292">
        <ele>20</ele>
        <time>2014-05-18T12:17:13Z</time>
      </trkpt>
      <trkpt lat="47.2362" lon="-2.29206">
        <ele>20</ele>
        <time>2014-05-18T12:17:18Z</time>
      </trkpt>
      <trkpt lat="47.23616" lon="-2.29213">
        <ele>20</ele>
        <time>2014-05-18T12:17:27Z</time>
      </trkpt>
      <trkpt lat="47.23612" lon="-2.29214">
        <ele>19</ele>
        <time>2014-05-18T12:17:33Z</time>
      </trkpt>
      <trkpt lat="47.23605" lon="-2.29213">
        <ele>19</ele>
        <time>2014-05-18T12:17:38Z</time>
      </trkpt>
      <trkpt lat="47.23595" lon="-2.29217">
        <ele>19</ele>
        <time>2014-05-18T12:17:43Z</time>
      </trkpt>
      <trkpt lat="47.23591" lon="-2.29222">
        <ele>19</ele>
        <time>2014-05-18T12:17:48Z</time>
      </trkpt>
      <trkpt lat="47.23587" lon="-2.2923">
        <ele>18</ele>
        <time>2014-05-18T12:17:54Z</time>
      </trkpt>
      <trkpt lat="47.23586" lon="-2.29237">
        <ele>18</ele>
        <time>2014-05-18T12:18:01Z</time>
      </trkpt>
      <trkpt lat="47.23584" lon="-2.29253">
        <ele>18</ele>
        <time>2014-05-18T12:18:09Z</time>
      </trkpt>
      <trkpt lat="47.23583" lon="-2.29268">
        <ele>15</ele>
        <time>2014-05-18T12:18:14Z</time>
      </trkpt>
      <trkpt lat="47.23581" lon="-2.29278">
        <ele>15</ele>
        <time>2014-05-18T12:18:20Z</time>
      </trkpt>
      <trkpt lat="47.23581" lon="-2.29293">
        <ele>15</ele>
        <time>2014-05-18T12:18:25Z</time>
      </trkpt>
      <trkpt lat="47.23583" lon="-2.29304">
        <ele>16</ele>
        <time>2014-05-18T12:18:34Z</time>
      </trkpt>
      <trkpt lat="47.23583" lon="-2.29315">
        <ele>18</ele>
        <time>2014-05-18T12:18:42Z</time>
      </trkpt>
      <trkpt lat="47.23584" lon="-2.29325">
        <ele>23</ele>
        <time>2014-05-18T12:18:48Z</time>
      </trkpt>
      <trkpt lat="47.23586" lon="-2.29339">
        <ele>23</ele>
        <time>2014-05-18T12:18:54Z</time>
      </trkpt>
      <trkpt lat="47.23587" lon="-2.29353">
        <ele>24</ele>
        <time>2014-05-18T12:19:03Z</time>
      </trkpt>
      <trkpt lat="47.23587" lon="-2.29362">
        <ele>25</ele>
        <time>2014-05-18T12:19:08Z</time>
      </trkpt>
      <trkpt lat="47.23588" lon="-2.2937">
        <ele>25</ele>
        <time>2014-05-18T12:19:14Z</time>
      </trkpt>
      <trkpt lat="47.23587" lon="-2.29381">
        <ele>25</ele>
        <time>2014-05-18T12:19:19Z</time>
      </trkpt>
      <trkpt lat="47.2359" lon="-2.29397">
        <ele>25</ele>
        <time>2014-05-18T12:19:29Z</time>
      </trkpt>
      <trkpt lat="47.23589" lon="-2.29408">
        <ele>26</ele>
        <time>2014-05-18T12:19:37Z</time>
      </trkpt>
      <trkpt lat="47.23588" lon="-2.29417">
        <ele>26</ele>
        <time>2014-05-18T12:19:43Z</time>
      </trkpt>
      <trkpt lat="47.2359" lon="-2.29428">
        <ele>26</ele>
        <time>2014-05-18T12:19:48Z</time>
      </trkpt>
      <trkpt lat="47.23589" lon="-2.29436">
        <ele>26</ele>
        <time>2014-05-18T12:19:53Z</time>
      </trkpt>
      <trkpt lat="47.23588" lon="-2.2945">
        <ele>26</ele>
        <time>2014-05-18T12:20:01Z</time>
      </trkpt>
      <trkpt lat="47.23589" lon="-2.2946">
        <ele>25</ele>
        <time>2014-05-18T12:20:08Z</time>
      </trkpt>
      <trkpt lat="47.23588" lon="-2.29472">
        <ele>25</ele>
        <time>2014-05-18T12:20:13Z</time>
      </trkpt>
      <trkpt lat="47.23588" lon="-2.29483">
        <ele>25</ele>
        <time>2014-05-18T12:20:19Z</time>
      </trkpt>
      <trkpt lat="47.23589" lon="-2.29497">
        <ele>24</ele>
        <time>2014-05-18T12:20:24Z</time>
      </trkpt>
      <trkpt lat="47.2359" lon="-2.29504">
        <ele>24</ele>
        <time>2014-05-18T12:20:29Z</time>
      </trkpt>
      <trkpt lat="47.2359" lon="-2.29512">
        <ele>24</ele>
        <time>2014-05-18T12:20:34Z</time>
      </trkpt>
      <trkpt lat="47.2359" lon="-2.29526">
        <ele>24</ele>
        <time>2014-05-18T12:20:45Z</time>
      </trkpt>
      <trkpt lat="47.2359" lon="-2.29535">
        <ele>24</ele>
        <time>2014-05-18T12:20:50Z</time>
      </trkpt>
      <trkpt lat="47.23588" lon="-2.29543">
        <ele>24</ele>
        <time>2014-05-18T12:20:55Z</time>
      </trkpt>
      <trkpt lat="47.23586" lon="-2.2955">
        <ele>24</ele>
        <time>2014-05-18T12:21:00Z</time>
      </trkpt>
      <trkpt lat="47.23582" lon="-2.29548">
        <ele>18</ele>
        <time>2014-05-18T12:21:36Z</time>
      </trkpt>
      <trkpt lat="47.23582" lon="-2.29548">
        <ele>18</ele>
        <time>2014-05-18T12:21:37Z</time>
      </trkpt>
    </trkseg>
  </trk>
</gpx>